<?xml version="1.0" encoding="UTF-8" standalone="no" ?>
<gpx xmlns="http://www.topografix.com/GPX/1/1" xmlns:xsi="http://www.w3.org/2001/XMLSchema-instance" xsi:schemaLocation="http://www.topografix.com/GPX/1/1 http://www.topografix.com/GPX/1/1/gpx.xsd" version="1.1" creator="VisuGPX - https://www.visugpx.com">
  <metadata>
    <name>2022-11-06 Cantallops Requesens</name>
  </metadata>
  <trk>
    <name><![CDATA[2022-11-08 14:50:36]]></name>
    <trkseg>
      <trkpt lat="42.42183" lon="2.92659">
        <ele>195</ele>
        <time>2022-11-08T07:55:16.000Z</time>
      </trkpt>
      <trkpt lat="42.42189" lon="2.92657">
        <ele>195</ele>
        <time>2022-11-08T07:55:28.000Z</time>
      </trkpt>
      <trkpt lat="42.42198" lon="2.92656">
        <ele>195</ele>
        <time>2022-11-08T07:55:51.000Z</time>
      </trkpt>
      <trkpt lat="42.42201" lon="2.92655">
        <ele>196</ele>
        <time>2022-11-08T07:55:55.000Z</time>
      </trkpt>
      <trkpt lat="42.42191" lon="2.92652">
        <ele>196</ele>
        <time>2022-11-08T07:56:12.000Z</time>
      </trkpt>
      <trkpt lat="42.42181" lon="2.92651">
        <ele>195</ele>
        <time>2022-11-08T07:56:31.000Z</time>
      </trkpt>
      <trkpt lat="42.42186" lon="2.9265">
        <ele>195</ele>
        <time>2022-11-08T07:56:47.000Z</time>
      </trkpt>
      <trkpt lat="42.42197" lon="2.92653">
        <ele>195</ele>
        <time>2022-11-08T07:57:01.000Z</time>
      </trkpt>
      <trkpt lat="42.42209" lon="2.92659">
        <ele>196</ele>
        <time>2022-11-08T07:57:21.000Z</time>
      </trkpt>
      <trkpt lat="42.42226" lon="2.92666">
        <ele>197</ele>
        <time>2022-11-08T07:57:39.000Z</time>
      </trkpt>
      <trkpt lat="42.42243" lon="2.92673">
        <ele>198</ele>
        <time>2022-11-08T07:57:56.000Z</time>
      </trkpt>
      <trkpt lat="42.42246" lon="2.92675">
        <ele>198</ele>
        <time>2022-11-08T07:58:01.000Z</time>
      </trkpt>
      <trkpt lat="42.42264" lon="2.92678">
        <ele>199</ele>
        <time>2022-11-08T07:58:19.000Z</time>
      </trkpt>
      <trkpt lat="42.42272" lon="2.9268">
        <ele>200</ele>
        <time>2022-11-08T07:58:35.000Z</time>
      </trkpt>
      <trkpt lat="42.4228" lon="2.92683">
        <ele>199</ele>
        <time>2022-11-08T07:58:46.000Z</time>
      </trkpt>
      <trkpt lat="42.42282" lon="2.92683">
        <ele>199</ele>
        <time>2022-11-08T07:58:48.000Z</time>
      </trkpt>
      <trkpt lat="42.42292" lon="2.92685">
        <ele>199</ele>
        <time>2022-11-08T07:59:04.000Z</time>
      </trkpt>
      <trkpt lat="42.42292" lon="2.92682">
        <ele>199</ele>
        <time>2022-11-08T07:59:28.000Z</time>
      </trkpt>
      <trkpt lat="42.42292" lon="2.92682">
        <ele>199</ele>
        <time>2022-11-08T07:59:52.000Z</time>
      </trkpt>
      <trkpt lat="42.42292" lon="2.92681">
        <ele>199</ele>
        <time>2022-11-08T08:00:18.000Z</time>
      </trkpt>
      <trkpt lat="42.42291" lon="2.9268">
        <ele>199</ele>
        <time>2022-11-08T08:00:34.000Z</time>
      </trkpt>
      <trkpt lat="42.42292" lon="2.92672">
        <ele>198</ele>
        <time>2022-11-08T08:00:52.000Z</time>
      </trkpt>
      <trkpt lat="42.42306" lon="2.92666">
        <ele>199</ele>
        <time>2022-11-08T08:01:12.000Z</time>
      </trkpt>
      <trkpt lat="42.42318" lon="2.92665">
        <ele>200</ele>
        <time>2022-11-08T08:01:24.000Z</time>
      </trkpt>
      <trkpt lat="42.42329" lon="2.92661">
        <ele>200</ele>
        <time>2022-11-08T08:01:34.000Z</time>
      </trkpt>
      <trkpt lat="42.42336" lon="2.92658">
        <ele>200</ele>
        <time>2022-11-08T08:01:39.000Z</time>
      </trkpt>
      <trkpt lat="42.42355" lon="2.9265">
        <ele>200</ele>
        <time>2022-11-08T08:01:57.000Z</time>
      </trkpt>
      <trkpt lat="42.42371" lon="2.92644">
        <ele>201</ele>
        <time>2022-11-08T08:02:12.000Z</time>
      </trkpt>
      <trkpt lat="42.4239" lon="2.92643">
        <ele>201</ele>
        <time>2022-11-08T08:02:30.000Z</time>
      </trkpt>
      <trkpt lat="42.42401" lon="2.92637">
        <ele>202</ele>
        <time>2022-11-08T08:02:43.000Z</time>
      </trkpt>
      <trkpt lat="42.42416" lon="2.9262">
        <ele>202</ele>
        <time>2022-11-08T08:03:02.000Z</time>
      </trkpt>
      <trkpt lat="42.42429" lon="2.92603">
        <ele>203</ele>
        <time>2022-11-08T08:03:18.000Z</time>
      </trkpt>
      <trkpt lat="42.42441" lon="2.92591">
        <ele>203</ele>
        <time>2022-11-08T08:03:32.000Z</time>
      </trkpt>
      <trkpt lat="42.42455" lon="2.92577">
        <ele>204</ele>
        <time>2022-11-08T08:03:47.000Z</time>
      </trkpt>
      <trkpt lat="42.42469" lon="2.92562">
        <ele>204</ele>
        <time>2022-11-08T08:04:04.000Z</time>
      </trkpt>
      <trkpt lat="42.42479" lon="2.92551">
        <ele>205</ele>
        <time>2022-11-08T08:04:14.000Z</time>
      </trkpt>
      <trkpt lat="42.42484" lon="2.92548">
        <ele>205</ele>
        <time>2022-11-08T08:04:19.000Z</time>
      </trkpt>
      <trkpt lat="42.42492" lon="2.92545">
        <ele>206</ele>
        <time>2022-11-08T08:04:26.000Z</time>
      </trkpt>
      <trkpt lat="42.42508" lon="2.9254">
        <ele>206</ele>
        <time>2022-11-08T08:04:40.000Z</time>
      </trkpt>
      <trkpt lat="42.42526" lon="2.92542">
        <ele>207</ele>
        <time>2022-11-08T08:04:57.000Z</time>
      </trkpt>
      <trkpt lat="42.42531" lon="2.92544">
        <ele>207</ele>
        <time>2022-11-08T08:05:04.000Z</time>
      </trkpt>
      <trkpt lat="42.42548" lon="2.92543">
        <ele>208</ele>
        <time>2022-11-08T08:05:21.000Z</time>
      </trkpt>
      <trkpt lat="42.42558" lon="2.9254">
        <ele>209</ele>
        <time>2022-11-08T08:05:31.000Z</time>
      </trkpt>
      <trkpt lat="42.42573" lon="2.92541">
        <ele>211</ele>
        <time>2022-11-08T08:05:46.000Z</time>
      </trkpt>
      <trkpt lat="42.42589" lon="2.92539">
        <ele>212</ele>
        <time>2022-11-08T08:06:02.000Z</time>
      </trkpt>
      <trkpt lat="42.42594" lon="2.92539">
        <ele>213</ele>
        <time>2022-11-08T08:06:08.000Z</time>
      </trkpt>
      <trkpt lat="42.42597" lon="2.92539">
        <ele>213</ele>
        <time>2022-11-08T08:06:11.000Z</time>
      </trkpt>
      <trkpt lat="42.42613" lon="2.92537">
        <ele>215</ele>
        <time>2022-11-08T08:06:26.000Z</time>
      </trkpt>
      <trkpt lat="42.42626" lon="2.92529">
        <ele>216</ele>
        <time>2022-11-08T08:06:40.000Z</time>
      </trkpt>
      <trkpt lat="42.42642" lon="2.92513">
        <ele>218</ele>
        <time>2022-11-08T08:06:58.000Z</time>
      </trkpt>
      <trkpt lat="42.42657" lon="2.92502">
        <ele>219</ele>
        <time>2022-11-08T08:07:14.000Z</time>
      </trkpt>
      <trkpt lat="42.42664" lon="2.92501">
        <ele>220</ele>
        <time>2022-11-08T08:07:22.000Z</time>
      </trkpt>
      <trkpt lat="42.42673" lon="2.92495">
        <ele>221</ele>
        <time>2022-11-08T08:07:34.000Z</time>
      </trkpt>
      <trkpt lat="42.42678" lon="2.92489">
        <ele>221</ele>
        <time>2022-11-08T08:07:49.000Z</time>
      </trkpt>
      <trkpt lat="42.42692" lon="2.92482">
        <ele>221</ele>
        <time>2022-11-08T08:08:04.000Z</time>
      </trkpt>
      <trkpt lat="42.42718" lon="2.9247">
        <ele>223</ele>
        <time>2022-11-08T08:08:27.000Z</time>
      </trkpt>
      <trkpt lat="42.42742" lon="2.92456">
        <ele>224</ele>
        <time>2022-11-08T08:08:48.000Z</time>
      </trkpt>
      <trkpt lat="42.42755" lon="2.92446">
        <ele>224</ele>
        <time>2022-11-08T08:09:02.000Z</time>
      </trkpt>
      <trkpt lat="42.4277" lon="2.92437">
        <ele>225</ele>
        <time>2022-11-08T08:09:16.000Z</time>
      </trkpt>
      <trkpt lat="42.42786" lon="2.92429">
        <ele>226</ele>
        <time>2022-11-08T08:09:30.000Z</time>
      </trkpt>
      <trkpt lat="42.42797" lon="2.92423">
        <ele>227</ele>
        <time>2022-11-08T08:09:42.000Z</time>
      </trkpt>
      <trkpt lat="42.4281" lon="2.92422">
        <ele>228</ele>
        <time>2022-11-08T08:09:58.000Z</time>
      </trkpt>
      <trkpt lat="42.42815" lon="2.92424">
        <ele>228</ele>
        <time>2022-11-08T08:10:04.000Z</time>
      </trkpt>
      <trkpt lat="42.4282" lon="2.92427">
        <ele>227</ele>
        <time>2022-11-08T08:10:08.000Z</time>
      </trkpt>
      <trkpt lat="42.42828" lon="2.92439">
        <ele>227</ele>
        <time>2022-11-08T08:10:19.000Z</time>
      </trkpt>
      <trkpt lat="42.42832" lon="2.9245">
        <ele>228</ele>
        <time>2022-11-08T08:10:26.000Z</time>
      </trkpt>
      <trkpt lat="42.42841" lon="2.92472">
        <ele>228</ele>
        <time>2022-11-08T08:10:42.000Z</time>
      </trkpt>
      <trkpt lat="42.42853" lon="2.92493">
        <ele>229</ele>
        <time>2022-11-08T08:10:59.000Z</time>
      </trkpt>
      <trkpt lat="42.42857" lon="2.92505">
        <ele>230</ele>
        <time>2022-11-08T08:11:07.000Z</time>
      </trkpt>
      <trkpt lat="42.42866" lon="2.92525">
        <ele>231</ele>
        <time>2022-11-08T08:11:22.000Z</time>
      </trkpt>
      <trkpt lat="42.42871" lon="2.92535">
        <ele>231</ele>
        <time>2022-11-08T08:11:30.000Z</time>
      </trkpt>
      <trkpt lat="42.42881" lon="2.92553">
        <ele>232</ele>
        <time>2022-11-08T08:11:45.000Z</time>
      </trkpt>
      <trkpt lat="42.42883" lon="2.92556">
        <ele>232</ele>
        <time>2022-11-08T08:11:48.000Z</time>
      </trkpt>
      <trkpt lat="42.42885" lon="2.9256">
        <ele>232</ele>
        <time>2022-11-08T08:11:51.000Z</time>
      </trkpt>
      <trkpt lat="42.42898" lon="2.92573">
        <ele>233</ele>
        <time>2022-11-08T08:12:08.000Z</time>
      </trkpt>
      <trkpt lat="42.42912" lon="2.92586">
        <ele>233</ele>
        <time>2022-11-08T08:12:21.000Z</time>
      </trkpt>
      <trkpt lat="42.42925" lon="2.92597">
        <ele>233</ele>
        <time>2022-11-08T08:12:35.000Z</time>
      </trkpt>
      <trkpt lat="42.42926" lon="2.92599">
        <ele>233</ele>
        <time>2022-11-08T08:12:38.000Z</time>
      </trkpt>
      <trkpt lat="42.42929" lon="2.92601">
        <ele>233</ele>
        <time>2022-11-08T08:12:40.000Z</time>
      </trkpt>
      <trkpt lat="42.42931" lon="2.926">
        <ele>233</ele>
        <time>2022-11-08T08:12:42.000Z</time>
      </trkpt>
      <trkpt lat="42.42932" lon="2.92601">
        <ele>233</ele>
        <time>2022-11-08T08:12:44.000Z</time>
      </trkpt>
      <trkpt lat="42.42941" lon="2.92603">
        <ele>233</ele>
        <time>2022-11-08T08:12:51.000Z</time>
      </trkpt>
      <trkpt lat="42.42972" lon="2.92599">
        <ele>233</ele>
        <time>2022-11-08T08:13:03.000Z</time>
      </trkpt>
      <trkpt lat="42.42973" lon="2.92599">
        <ele>233</ele>
        <time>2022-11-08T08:13:04.000Z</time>
      </trkpt>
      <trkpt lat="42.4298" lon="2.92601">
        <ele>233</ele>
        <time>2022-11-08T08:13:10.000Z</time>
      </trkpt>
      <trkpt lat="42.42982" lon="2.92602">
        <ele>234</ele>
        <time>2022-11-08T08:13:12.000Z</time>
      </trkpt>
      <trkpt lat="42.42987" lon="2.92605">
        <ele>234</ele>
        <time>2022-11-08T08:13:18.000Z</time>
      </trkpt>
      <trkpt lat="42.4299" lon="2.92605">
        <ele>234</ele>
        <time>2022-11-08T08:13:20.000Z</time>
      </trkpt>
      <trkpt lat="42.42994" lon="2.92607">
        <ele>234</ele>
        <time>2022-11-08T08:13:25.000Z</time>
      </trkpt>
      <trkpt lat="42.42998" lon="2.92606">
        <ele>235</ele>
        <time>2022-11-08T08:13:28.000Z</time>
      </trkpt>
      <trkpt lat="42.43002" lon="2.92607">
        <ele>235</ele>
        <time>2022-11-08T08:13:31.000Z</time>
      </trkpt>
      <trkpt lat="42.43014" lon="2.92614">
        <ele>235</ele>
        <time>2022-11-08T08:13:43.000Z</time>
      </trkpt>
      <trkpt lat="42.4302" lon="2.92617">
        <ele>235</ele>
        <time>2022-11-08T08:13:50.000Z</time>
      </trkpt>
      <trkpt lat="42.43035" lon="2.92619">
        <ele>236</ele>
        <time>2022-11-08T08:14:02.000Z</time>
      </trkpt>
      <trkpt lat="42.43045" lon="2.92618">
        <ele>236</ele>
        <time>2022-11-08T08:14:12.000Z</time>
      </trkpt>
      <trkpt lat="42.43042" lon="2.92628">
        <ele>236</ele>
        <time>2022-11-08T08:14:25.000Z</time>
      </trkpt>
      <trkpt lat="42.43039" lon="2.92636">
        <ele>237</ele>
        <time>2022-11-08T08:14:30.000Z</time>
      </trkpt>
      <trkpt lat="42.43032" lon="2.92651">
        <ele>237</ele>
        <time>2022-11-08T08:14:41.000Z</time>
      </trkpt>
      <trkpt lat="42.43042" lon="2.92659">
        <ele>237</ele>
        <time>2022-11-08T08:14:56.000Z</time>
      </trkpt>
      <trkpt lat="42.43061" lon="2.92659">
        <ele>238</ele>
        <time>2022-11-08T08:15:17.000Z</time>
      </trkpt>
      <trkpt lat="42.43074" lon="2.92655">
        <ele>239</ele>
        <time>2022-11-08T08:15:37.000Z</time>
      </trkpt>
      <trkpt lat="42.43092" lon="2.92645">
        <ele>241</ele>
        <time>2022-11-08T08:15:56.000Z</time>
      </trkpt>
      <trkpt lat="42.43108" lon="2.92633">
        <ele>242</ele>
        <time>2022-11-08T08:16:16.000Z</time>
      </trkpt>
      <trkpt lat="42.43119" lon="2.92623">
        <ele>243</ele>
        <time>2022-11-08T08:16:35.000Z</time>
      </trkpt>
      <trkpt lat="42.43139" lon="2.92612">
        <ele>245</ele>
        <time>2022-11-08T08:16:58.000Z</time>
      </trkpt>
      <trkpt lat="42.43143" lon="2.92609">
        <ele>245</ele>
        <time>2022-11-08T08:17:02.000Z</time>
      </trkpt>
      <trkpt lat="42.43147" lon="2.92603">
        <ele>246</ele>
        <time>2022-11-08T08:17:08.000Z</time>
      </trkpt>
      <trkpt lat="42.43162" lon="2.92589">
        <ele>245</ele>
        <time>2022-11-08T08:17:23.000Z</time>
      </trkpt>
      <trkpt lat="42.4318" lon="2.92582">
        <ele>246</ele>
        <time>2022-11-08T08:17:39.000Z</time>
      </trkpt>
      <trkpt lat="42.43193" lon="2.9258">
        <ele>247</ele>
        <time>2022-11-08T08:17:54.000Z</time>
      </trkpt>
      <trkpt lat="42.43211" lon="2.9258">
        <ele>249</ele>
        <time>2022-11-08T08:18:14.000Z</time>
      </trkpt>
      <trkpt lat="42.43233" lon="2.92576">
        <ele>251</ele>
        <time>2022-11-08T08:18:38.000Z</time>
      </trkpt>
      <trkpt lat="42.43249" lon="2.92571">
        <ele>254</ele>
        <time>2022-11-08T08:18:58.000Z</time>
      </trkpt>
      <trkpt lat="42.4326" lon="2.92565">
        <ele>257</ele>
        <time>2022-11-08T08:19:13.000Z</time>
      </trkpt>
      <trkpt lat="42.43277" lon="2.92556">
        <ele>260</ele>
        <time>2022-11-08T08:19:33.000Z</time>
      </trkpt>
      <trkpt lat="42.43289" lon="2.92557">
        <ele>261</ele>
        <time>2022-11-08T08:19:47.000Z</time>
      </trkpt>
      <trkpt lat="42.43297" lon="2.92568">
        <ele>261</ele>
        <time>2022-11-08T08:19:58.000Z</time>
      </trkpt>
      <trkpt lat="42.43315" lon="2.9259">
        <ele>263</ele>
        <time>2022-11-08T08:20:21.000Z</time>
      </trkpt>
      <trkpt lat="42.43321" lon="2.92595">
        <ele>263</ele>
        <time>2022-11-08T08:20:30.000Z</time>
      </trkpt>
      <trkpt lat="42.43328" lon="2.92593">
        <ele>262</ele>
        <time>2022-11-08T08:20:34.000Z</time>
      </trkpt>
      <trkpt lat="42.43333" lon="2.92593">
        <ele>262</ele>
        <time>2022-11-08T08:20:40.000Z</time>
      </trkpt>
      <trkpt lat="42.43344" lon="2.92602">
        <ele>264</ele>
        <time>2022-11-08T08:20:55.000Z</time>
      </trkpt>
      <trkpt lat="42.43356" lon="2.92616">
        <ele>267</ele>
        <time>2022-11-08T08:21:14.000Z</time>
      </trkpt>
      <trkpt lat="42.43359" lon="2.92615">
        <ele>267</ele>
        <time>2022-11-08T08:21:17.000Z</time>
      </trkpt>
      <trkpt lat="42.43368" lon="2.92621">
        <ele>269</ele>
        <time>2022-11-08T08:21:34.000Z</time>
      </trkpt>
      <trkpt lat="42.43381" lon="2.92632">
        <ele>270</ele>
        <time>2022-11-08T08:21:47.000Z</time>
      </trkpt>
      <trkpt lat="42.43387" lon="2.92635">
        <ele>270</ele>
        <time>2022-11-08T08:21:51.000Z</time>
      </trkpt>
      <trkpt lat="42.4339" lon="2.92636">
        <ele>270</ele>
        <time>2022-11-08T08:21:53.000Z</time>
      </trkpt>
      <trkpt lat="42.43403" lon="2.92643">
        <ele>271</ele>
        <time>2022-11-08T08:22:07.000Z</time>
      </trkpt>
      <trkpt lat="42.43407" lon="2.92648">
        <ele>272</ele>
        <time>2022-11-08T08:22:13.000Z</time>
      </trkpt>
      <trkpt lat="42.43414" lon="2.9265">
        <ele>272</ele>
        <time>2022-11-08T08:22:17.000Z</time>
      </trkpt>
      <trkpt lat="42.43425" lon="2.92655">
        <ele>272</ele>
        <time>2022-11-08T08:22:31.000Z</time>
      </trkpt>
      <trkpt lat="42.43428" lon="2.92655">
        <ele>272</ele>
        <time>2022-11-08T08:22:34.000Z</time>
      </trkpt>
      <trkpt lat="42.43432" lon="2.92655">
        <ele>272</ele>
        <time>2022-11-08T08:22:37.000Z</time>
      </trkpt>
      <trkpt lat="42.43436" lon="2.92656">
        <ele>273</ele>
        <time>2022-11-08T08:22:43.000Z</time>
      </trkpt>
      <trkpt lat="42.4344" lon="2.92655">
        <ele>274</ele>
        <time>2022-11-08T08:22:47.000Z</time>
      </trkpt>
      <trkpt lat="42.43444" lon="2.92656">
        <ele>274</ele>
        <time>2022-11-08T08:22:54.000Z</time>
      </trkpt>
      <trkpt lat="42.43448" lon="2.92666">
        <ele>276</ele>
        <time>2022-11-08T08:23:16.000Z</time>
      </trkpt>
      <trkpt lat="42.43455" lon="2.92654">
        <ele>277</ele>
        <time>2022-11-08T08:23:39.000Z</time>
      </trkpt>
      <trkpt lat="42.43459" lon="2.92649">
        <ele>279</ele>
        <time>2022-11-08T08:23:57.000Z</time>
      </trkpt>
      <trkpt lat="42.43465" lon="2.92645">
        <ele>280</ele>
        <time>2022-11-08T08:24:19.000Z</time>
      </trkpt>
      <trkpt lat="42.43463" lon="2.92646">
        <ele>280</ele>
        <time>2022-11-08T08:24:47.000Z</time>
      </trkpt>
      <trkpt lat="42.43462" lon="2.92641">
        <ele>280</ele>
        <time>2022-11-08T08:25:14.000Z</time>
      </trkpt>
      <trkpt lat="42.43459" lon="2.92637">
        <ele>281</ele>
        <time>2022-11-08T08:25:45.000Z</time>
      </trkpt>
      <trkpt lat="42.4346" lon="2.92637">
        <ele>281</ele>
        <time>2022-11-08T08:26:20.000Z</time>
      </trkpt>
      <trkpt lat="42.43461" lon="2.92642">
        <ele>281</ele>
        <time>2022-11-08T08:26:53.000Z</time>
      </trkpt>
      <trkpt lat="42.43457" lon="2.92641">
        <ele>281</ele>
        <time>2022-11-08T08:27:21.000Z</time>
      </trkpt>
      <trkpt lat="42.43453" lon="2.92639">
        <ele>281</ele>
        <time>2022-11-08T08:27:53.000Z</time>
      </trkpt>
      <trkpt lat="42.43455" lon="2.9264">
        <ele>281</ele>
        <time>2022-11-08T08:28:26.000Z</time>
      </trkpt>
      <trkpt lat="42.43455" lon="2.92643">
        <ele>282</ele>
        <time>2022-11-08T08:28:51.000Z</time>
      </trkpt>
      <trkpt lat="42.43449" lon="2.92652">
        <ele>281</ele>
        <time>2022-11-08T08:29:11.000Z</time>
      </trkpt>
      <trkpt lat="42.43445" lon="2.92662">
        <ele>281</ele>
        <time>2022-11-08T08:29:32.000Z</time>
      </trkpt>
      <trkpt lat="42.43447" lon="2.92673">
        <ele>281</ele>
        <time>2022-11-08T08:30:00.000Z</time>
      </trkpt>
      <trkpt lat="42.43462" lon="2.92688">
        <ele>283</ele>
        <time>2022-11-08T08:30:22.000Z</time>
      </trkpt>
      <trkpt lat="42.43465" lon="2.9269">
        <ele>283</ele>
        <time>2022-11-08T08:30:25.000Z</time>
      </trkpt>
      <trkpt lat="42.43475" lon="2.92702">
        <ele>284</ele>
        <time>2022-11-08T08:30:42.000Z</time>
      </trkpt>
      <trkpt lat="42.43476" lon="2.92709">
        <ele>285</ele>
        <time>2022-11-08T08:30:48.000Z</time>
      </trkpt>
      <trkpt lat="42.43484" lon="2.9272">
        <ele>286</ele>
        <time>2022-11-08T08:30:59.000Z</time>
      </trkpt>
      <trkpt lat="42.43492" lon="2.92729">
        <ele>287</ele>
        <time>2022-11-08T08:31:08.000Z</time>
      </trkpt>
      <trkpt lat="42.43494" lon="2.92734">
        <ele>288</ele>
        <time>2022-11-08T08:31:13.000Z</time>
      </trkpt>
      <trkpt lat="42.43496" lon="2.92736">
        <ele>288</ele>
        <time>2022-11-08T08:31:16.000Z</time>
      </trkpt>
      <trkpt lat="42.4351" lon="2.92745">
        <ele>289</ele>
        <time>2022-11-08T08:31:29.000Z</time>
      </trkpt>
      <trkpt lat="42.43512" lon="2.92753">
        <ele>290</ele>
        <time>2022-11-08T08:31:35.000Z</time>
      </trkpt>
      <trkpt lat="42.43518" lon="2.92757">
        <ele>290</ele>
        <time>2022-11-08T08:31:39.000Z</time>
      </trkpt>
      <trkpt lat="42.43522" lon="2.92761">
        <ele>291</ele>
        <time>2022-11-08T08:31:44.000Z</time>
      </trkpt>
      <trkpt lat="42.43526" lon="2.92764">
        <ele>291</ele>
        <time>2022-11-08T08:31:48.000Z</time>
      </trkpt>
      <trkpt lat="42.43528" lon="2.92765">
        <ele>292</ele>
        <time>2022-11-08T08:31:50.000Z</time>
      </trkpt>
      <trkpt lat="42.43535" lon="2.92769">
        <ele>293</ele>
        <time>2022-11-08T08:31:58.000Z</time>
      </trkpt>
      <trkpt lat="42.43536" lon="2.92772">
        <ele>293</ele>
        <time>2022-11-08T08:32:02.000Z</time>
      </trkpt>
      <trkpt lat="42.43543" lon="2.9278">
        <ele>294</ele>
        <time>2022-11-08T08:32:11.000Z</time>
      </trkpt>
      <trkpt lat="42.43549" lon="2.92787">
        <ele>295</ele>
        <time>2022-11-08T08:32:23.000Z</time>
      </trkpt>
      <trkpt lat="42.43554" lon="2.92792">
        <ele>296</ele>
        <time>2022-11-08T08:32:33.000Z</time>
      </trkpt>
      <trkpt lat="42.43545" lon="2.92787">
        <ele>296</ele>
        <time>2022-11-08T08:32:44.000Z</time>
      </trkpt>
      <trkpt lat="42.43547" lon="2.92792">
        <ele>296</ele>
        <time>2022-11-08T08:32:52.000Z</time>
      </trkpt>
      <trkpt lat="42.43549" lon="2.92807">
        <ele>296</ele>
        <time>2022-11-08T08:33:08.000Z</time>
      </trkpt>
      <trkpt lat="42.43556" lon="2.92813">
        <ele>298</ele>
        <time>2022-11-08T08:33:22.000Z</time>
      </trkpt>
      <trkpt lat="42.43564" lon="2.9282">
        <ele>299</ele>
        <time>2022-11-08T08:33:31.000Z</time>
      </trkpt>
      <trkpt lat="42.43566" lon="2.92822">
        <ele>299</ele>
        <time>2022-11-08T08:33:33.000Z</time>
      </trkpt>
      <trkpt lat="42.43577" lon="2.92831">
        <ele>300</ele>
        <time>2022-11-08T08:33:44.000Z</time>
      </trkpt>
      <trkpt lat="42.43581" lon="2.9284">
        <ele>301</ele>
        <time>2022-11-08T08:33:50.000Z</time>
      </trkpt>
      <trkpt lat="42.43589" lon="2.92853">
        <ele>302</ele>
        <time>2022-11-08T08:34:04.000Z</time>
      </trkpt>
      <trkpt lat="42.43596" lon="2.92872">
        <ele>304</ele>
        <time>2022-11-08T08:34:18.000Z</time>
      </trkpt>
      <trkpt lat="42.43599" lon="2.92876">
        <ele>305</ele>
        <time>2022-11-08T08:34:25.000Z</time>
      </trkpt>
      <trkpt lat="42.43608" lon="2.9288">
        <ele>305</ele>
        <time>2022-11-08T08:34:32.000Z</time>
      </trkpt>
      <trkpt lat="42.43621" lon="2.92889">
        <ele>307</ele>
        <time>2022-11-08T08:34:48.000Z</time>
      </trkpt>
      <trkpt lat="42.43627" lon="2.92889">
        <ele>307</ele>
        <time>2022-11-08T08:34:52.000Z</time>
      </trkpt>
      <trkpt lat="42.43639" lon="2.92895">
        <ele>308</ele>
        <time>2022-11-08T08:35:02.000Z</time>
      </trkpt>
      <trkpt lat="42.4364" lon="2.92907">
        <ele>309</ele>
        <time>2022-11-08T08:35:13.000Z</time>
      </trkpt>
      <trkpt lat="42.43647" lon="2.92915">
        <ele>311</ele>
        <time>2022-11-08T08:35:26.000Z</time>
      </trkpt>
      <trkpt lat="42.43649" lon="2.92928">
        <ele>313</ele>
        <time>2022-11-08T08:35:39.000Z</time>
      </trkpt>
      <trkpt lat="42.4366" lon="2.92944">
        <ele>314</ele>
        <time>2022-11-08T08:35:54.000Z</time>
      </trkpt>
      <trkpt lat="42.43659" lon="2.92947">
        <ele>314</ele>
        <time>2022-11-08T08:35:57.000Z</time>
      </trkpt>
      <trkpt lat="42.4366" lon="2.92951">
        <ele>313</ele>
        <time>2022-11-08T08:36:01.000Z</time>
      </trkpt>
      <trkpt lat="42.43663" lon="2.92956">
        <ele>313</ele>
        <time>2022-11-08T08:36:07.000Z</time>
      </trkpt>
      <trkpt lat="42.43663" lon="2.92966">
        <ele>312</ele>
        <time>2022-11-08T08:36:23.000Z</time>
      </trkpt>
      <trkpt lat="42.43654" lon="2.92974">
        <ele>312</ele>
        <time>2022-11-08T08:36:47.000Z</time>
      </trkpt>
      <trkpt lat="42.43653" lon="2.92977">
        <ele>312</ele>
        <time>2022-11-08T08:37:14.000Z</time>
      </trkpt>
      <trkpt lat="42.43656" lon="2.92976">
        <ele>312</ele>
        <time>2022-11-08T08:37:33.000Z</time>
      </trkpt>
      <trkpt lat="42.43656" lon="2.92979">
        <ele>312</ele>
        <time>2022-11-08T08:37:57.000Z</time>
      </trkpt>
      <trkpt lat="42.43652" lon="2.92976">
        <ele>311</ele>
        <time>2022-11-08T08:38:19.000Z</time>
      </trkpt>
      <trkpt lat="42.43648" lon="2.92975">
        <ele>312</ele>
        <time>2022-11-08T08:38:45.000Z</time>
      </trkpt>
      <trkpt lat="42.43648" lon="2.92975">
        <ele>312</ele>
        <time>2022-11-08T08:38:47.000Z</time>
      </trkpt>
      <trkpt lat="42.4365" lon="2.92977">
        <ele>312</ele>
        <time>2022-11-08T08:39:04.000Z</time>
      </trkpt>
      <trkpt lat="42.43646" lon="2.92979">
        <ele>312</ele>
        <time>2022-11-08T08:39:31.000Z</time>
      </trkpt>
      <trkpt lat="42.43644" lon="2.92976">
        <ele>312</ele>
        <time>2022-11-08T08:40:03.000Z</time>
      </trkpt>
      <trkpt lat="42.43645" lon="2.92977">
        <ele>312</ele>
        <time>2022-11-08T08:40:13.000Z</time>
      </trkpt>
      <trkpt lat="42.43645" lon="2.9298">
        <ele>312</ele>
        <time>2022-11-08T08:40:43.000Z</time>
      </trkpt>
      <trkpt lat="42.43647" lon="2.92971">
        <ele>312</ele>
        <time>2022-11-08T08:41:09.000Z</time>
      </trkpt>
      <trkpt lat="42.43643" lon="2.9296">
        <ele>313</ele>
        <time>2022-11-08T08:41:30.000Z</time>
      </trkpt>
      <trkpt lat="42.43645" lon="2.92961">
        <ele>314</ele>
        <time>2022-11-08T08:41:46.000Z</time>
      </trkpt>
      <trkpt lat="42.43652" lon="2.92966">
        <ele>315</ele>
        <time>2022-11-08T08:42:01.000Z</time>
      </trkpt>
      <trkpt lat="42.43664" lon="2.92973">
        <ele>317</ele>
        <time>2022-11-08T08:42:15.000Z</time>
      </trkpt>
      <trkpt lat="42.43672" lon="2.92978">
        <ele>318</ele>
        <time>2022-11-08T08:42:26.000Z</time>
      </trkpt>
      <trkpt lat="42.43674" lon="2.9298">
        <ele>318</ele>
        <time>2022-11-08T08:42:30.000Z</time>
      </trkpt>
      <trkpt lat="42.43676" lon="2.92984">
        <ele>319</ele>
        <time>2022-11-08T08:42:33.000Z</time>
      </trkpt>
      <trkpt lat="42.43688" lon="2.92993">
        <ele>321</ele>
        <time>2022-11-08T08:42:53.000Z</time>
      </trkpt>
      <trkpt lat="42.43695" lon="2.92999">
        <ele>323</ele>
        <time>2022-11-08T08:43:07.000Z</time>
      </trkpt>
      <trkpt lat="42.43717" lon="2.93016">
        <ele>325</ele>
        <time>2022-11-08T08:43:28.000Z</time>
      </trkpt>
      <trkpt lat="42.43739" lon="2.93026">
        <ele>328</ele>
        <time>2022-11-08T08:43:53.000Z</time>
      </trkpt>
      <trkpt lat="42.43753" lon="2.93026">
        <ele>330</ele>
        <time>2022-11-08T08:44:06.000Z</time>
      </trkpt>
      <trkpt lat="42.43761" lon="2.93031">
        <ele>331</ele>
        <time>2022-11-08T08:44:17.000Z</time>
      </trkpt>
      <trkpt lat="42.43777" lon="2.93039">
        <ele>332</ele>
        <time>2022-11-08T08:44:35.000Z</time>
      </trkpt>
      <trkpt lat="42.43789" lon="2.93045">
        <ele>335</ele>
        <time>2022-11-08T08:44:52.000Z</time>
      </trkpt>
      <trkpt lat="42.43801" lon="2.93054">
        <ele>336</ele>
        <time>2022-11-08T08:45:08.000Z</time>
      </trkpt>
      <trkpt lat="42.43812" lon="2.93072">
        <ele>337</ele>
        <time>2022-11-08T08:45:31.000Z</time>
      </trkpt>
      <trkpt lat="42.4382" lon="2.93076">
        <ele>340</ele>
        <time>2022-11-08T08:45:52.000Z</time>
      </trkpt>
      <trkpt lat="42.43826" lon="2.93081">
        <ele>343</ele>
        <time>2022-11-08T08:46:10.000Z</time>
      </trkpt>
      <trkpt lat="42.43833" lon="2.93089">
        <ele>346</ele>
        <time>2022-11-08T08:46:29.000Z</time>
      </trkpt>
      <trkpt lat="42.43833" lon="2.93102">
        <ele>349</ele>
        <time>2022-11-08T08:46:48.000Z</time>
      </trkpt>
      <trkpt lat="42.43839" lon="2.93104">
        <ele>351</ele>
        <time>2022-11-08T08:47:11.000Z</time>
      </trkpt>
      <trkpt lat="42.43847" lon="2.93101">
        <ele>354</ele>
        <time>2022-11-08T08:47:32.000Z</time>
      </trkpt>
      <trkpt lat="42.43852" lon="2.93103">
        <ele>357</ele>
        <time>2022-11-08T08:47:50.000Z</time>
      </trkpt>
      <trkpt lat="42.43854" lon="2.93098">
        <ele>360</ele>
        <time>2022-11-08T08:48:11.000Z</time>
      </trkpt>
      <trkpt lat="42.4385" lon="2.931">
        <ele>360</ele>
        <time>2022-11-08T08:48:35.000Z</time>
      </trkpt>
      <trkpt lat="42.43848" lon="2.93102">
        <ele>360</ele>
        <time>2022-11-08T08:49:03.000Z</time>
      </trkpt>
      <trkpt lat="42.43847" lon="2.93105">
        <ele>360</ele>
        <time>2022-11-08T08:49:35.000Z</time>
      </trkpt>
      <trkpt lat="42.43854" lon="2.93103">
        <ele>361</ele>
        <time>2022-11-08T08:49:56.000Z</time>
      </trkpt>
      <trkpt lat="42.43862" lon="2.93106">
        <ele>364</ele>
        <time>2022-11-08T08:50:11.000Z</time>
      </trkpt>
      <trkpt lat="42.43871" lon="2.93109">
        <ele>368</ele>
        <time>2022-11-08T08:50:27.000Z</time>
      </trkpt>
      <trkpt lat="42.43879" lon="2.9311">
        <ele>371</ele>
        <time>2022-11-08T08:50:43.000Z</time>
      </trkpt>
      <trkpt lat="42.43886" lon="2.9311">
        <ele>374</ele>
        <time>2022-11-08T08:50:57.000Z</time>
      </trkpt>
      <trkpt lat="42.43891" lon="2.93107">
        <ele>377</ele>
        <time>2022-11-08T08:51:12.000Z</time>
      </trkpt>
      <trkpt lat="42.43897" lon="2.93102">
        <ele>380</ele>
        <time>2022-11-08T08:51:30.000Z</time>
      </trkpt>
      <trkpt lat="42.43908" lon="2.93102">
        <ele>383</ele>
        <time>2022-11-08T08:51:48.000Z</time>
      </trkpt>
      <trkpt lat="42.43914" lon="2.93107">
        <ele>386</ele>
        <time>2022-11-08T08:52:06.000Z</time>
      </trkpt>
      <trkpt lat="42.43916" lon="2.93115">
        <ele>389</ele>
        <time>2022-11-08T08:52:25.000Z</time>
      </trkpt>
      <trkpt lat="42.4392" lon="2.93119">
        <ele>392</ele>
        <time>2022-11-08T08:52:42.000Z</time>
      </trkpt>
      <trkpt lat="42.43926" lon="2.93123">
        <ele>396</ele>
        <time>2022-11-08T08:52:59.000Z</time>
      </trkpt>
      <trkpt lat="42.43931" lon="2.93127">
        <ele>399</ele>
        <time>2022-11-08T08:53:16.000Z</time>
      </trkpt>
      <trkpt lat="42.43936" lon="2.93126">
        <ele>402</ele>
        <time>2022-11-08T08:53:34.000Z</time>
      </trkpt>
      <trkpt lat="42.43942" lon="2.93128">
        <ele>405</ele>
        <time>2022-11-08T08:53:52.000Z</time>
      </trkpt>
      <trkpt lat="42.43948" lon="2.93131">
        <ele>408</ele>
        <time>2022-11-08T08:54:09.000Z</time>
      </trkpt>
      <trkpt lat="42.43955" lon="2.93131">
        <ele>411</ele>
        <time>2022-11-08T08:54:27.000Z</time>
      </trkpt>
      <trkpt lat="42.43957" lon="2.93138">
        <ele>414</ele>
        <time>2022-11-08T08:54:47.000Z</time>
      </trkpt>
      <trkpt lat="42.43959" lon="2.93146">
        <ele>417</ele>
        <time>2022-11-08T08:55:07.000Z</time>
      </trkpt>
      <trkpt lat="42.43964" lon="2.93153">
        <ele>420</ele>
        <time>2022-11-08T08:55:25.000Z</time>
      </trkpt>
      <trkpt lat="42.43968" lon="2.93157">
        <ele>423</ele>
        <time>2022-11-08T08:55:51.000Z</time>
      </trkpt>
      <trkpt lat="42.43973" lon="2.93163">
        <ele>426</ele>
        <time>2022-11-08T08:56:16.000Z</time>
      </trkpt>
      <trkpt lat="42.43978" lon="2.93168">
        <ele>429</ele>
        <time>2022-11-08T08:56:33.000Z</time>
      </trkpt>
      <trkpt lat="42.43984" lon="2.93168">
        <ele>432</ele>
        <time>2022-11-08T08:56:51.000Z</time>
      </trkpt>
      <trkpt lat="42.43994" lon="2.93176">
        <ele>435</ele>
        <time>2022-11-08T08:57:13.000Z</time>
      </trkpt>
      <trkpt lat="42.44003" lon="2.9318">
        <ele>438</ele>
        <time>2022-11-08T08:57:34.000Z</time>
      </trkpt>
      <trkpt lat="42.4401" lon="2.93185">
        <ele>441</ele>
        <time>2022-11-08T08:57:52.000Z</time>
      </trkpt>
      <trkpt lat="42.44015" lon="2.93193">
        <ele>444</ele>
        <time>2022-11-08T08:58:08.000Z</time>
      </trkpt>
      <trkpt lat="42.44024" lon="2.93196">
        <ele>447</ele>
        <time>2022-11-08T08:58:28.000Z</time>
      </trkpt>
      <trkpt lat="42.44032" lon="2.93198">
        <ele>451</ele>
        <time>2022-11-08T08:58:47.000Z</time>
      </trkpt>
      <trkpt lat="42.44044" lon="2.93199">
        <ele>453</ele>
        <time>2022-11-08T08:59:10.000Z</time>
      </trkpt>
      <trkpt lat="42.44051" lon="2.93208">
        <ele>456</ele>
        <time>2022-11-08T08:59:31.000Z</time>
      </trkpt>
      <trkpt lat="42.44061" lon="2.93212">
        <ele>460</ele>
        <time>2022-11-08T08:59:49.000Z</time>
      </trkpt>
      <trkpt lat="42.44076" lon="2.93212">
        <ele>462</ele>
        <time>2022-11-08T09:00:13.000Z</time>
      </trkpt>
      <trkpt lat="42.44078" lon="2.93215">
        <ele>463</ele>
        <time>2022-11-08T09:00:45.000Z</time>
      </trkpt>
      <trkpt lat="42.44078" lon="2.93214">
        <ele>463</ele>
        <time>2022-11-08T09:01:18.000Z</time>
      </trkpt>
      <trkpt lat="42.44078" lon="2.93212">
        <ele>463</ele>
        <time>2022-11-08T09:01:23.000Z</time>
      </trkpt>
      <trkpt lat="42.44076" lon="2.93212">
        <ele>462</ele>
        <time>2022-11-08T09:01:50.000Z</time>
      </trkpt>
      <trkpt lat="42.44076" lon="2.93212">
        <ele>462</ele>
        <time>2022-11-08T09:01:51.000Z</time>
      </trkpt>
      <trkpt lat="42.44075" lon="2.93214">
        <ele>462</ele>
        <time>2022-11-08T09:02:23.000Z</time>
      </trkpt>
      <trkpt lat="42.44074" lon="2.93212">
        <ele>462</ele>
        <time>2022-11-08T09:02:57.000Z</time>
      </trkpt>
      <trkpt lat="42.44077" lon="2.93211">
        <ele>462</ele>
        <time>2022-11-08T09:03:29.000Z</time>
      </trkpt>
      <trkpt lat="42.44076" lon="2.93209">
        <ele>463</ele>
        <time>2022-11-08T09:04:07.000Z</time>
      </trkpt>
      <trkpt lat="42.44075" lon="2.9321">
        <ele>463</ele>
        <time>2022-11-08T09:04:55.000Z</time>
      </trkpt>
      <trkpt lat="42.44075" lon="2.93211">
        <ele>464</ele>
        <time>2022-11-08T09:05:57.000Z</time>
      </trkpt>
      <trkpt lat="42.44076" lon="2.93215">
        <ele>464</ele>
        <time>2022-11-08T09:06:27.000Z</time>
      </trkpt>
      <trkpt lat="42.44073" lon="2.93218">
        <ele>465</ele>
        <time>2022-11-08T09:06:54.000Z</time>
      </trkpt>
      <trkpt lat="42.44072" lon="2.93214">
        <ele>465</ele>
        <time>2022-11-08T09:07:15.000Z</time>
      </trkpt>
      <trkpt lat="42.44077" lon="2.93217">
        <ele>465</ele>
        <time>2022-11-08T09:07:46.000Z</time>
      </trkpt>
      <trkpt lat="42.44076" lon="2.93221">
        <ele>466</ele>
        <time>2022-11-08T09:08:21.000Z</time>
      </trkpt>
      <trkpt lat="42.44075" lon="2.93219">
        <ele>466</ele>
        <time>2022-11-08T09:08:51.000Z</time>
      </trkpt>
      <trkpt lat="42.44076" lon="2.93209">
        <ele>466</ele>
        <time>2022-11-08T09:09:23.000Z</time>
      </trkpt>
      <trkpt lat="42.44081" lon="2.93215">
        <ele>466</ele>
        <time>2022-11-08T09:09:48.000Z</time>
      </trkpt>
      <trkpt lat="42.44084" lon="2.93216">
        <ele>466</ele>
        <time>2022-11-08T09:10:10.000Z</time>
      </trkpt>
      <trkpt lat="42.44091" lon="2.93218">
        <ele>465</ele>
        <time>2022-11-08T09:10:39.000Z</time>
      </trkpt>
      <trkpt lat="42.441" lon="2.93224">
        <ele>463</ele>
        <time>2022-11-08T09:11:01.000Z</time>
      </trkpt>
      <trkpt lat="42.4411" lon="2.93221">
        <ele>461</ele>
        <time>2022-11-08T09:11:19.000Z</time>
      </trkpt>
      <trkpt lat="42.44113" lon="2.9322">
        <ele>460</ele>
        <time>2022-11-08T09:11:41.000Z</time>
      </trkpt>
      <trkpt lat="42.4412" lon="2.93209">
        <ele>460</ele>
        <time>2022-11-08T09:11:57.000Z</time>
      </trkpt>
      <trkpt lat="42.44134" lon="2.93202">
        <ele>458</ele>
        <time>2022-11-08T09:12:17.000Z</time>
      </trkpt>
      <trkpt lat="42.44153" lon="2.93191">
        <ele>456</ele>
        <time>2022-11-08T09:12:39.000Z</time>
      </trkpt>
      <trkpt lat="42.44165" lon="2.93179">
        <ele>454</ele>
        <time>2022-11-08T09:12:59.000Z</time>
      </trkpt>
      <trkpt lat="42.4418" lon="2.93169">
        <ele>451</ele>
        <time>2022-11-08T09:13:17.000Z</time>
      </trkpt>
      <trkpt lat="42.44192" lon="2.93159">
        <ele>448</ele>
        <time>2022-11-08T09:13:36.000Z</time>
      </trkpt>
      <trkpt lat="42.44197" lon="2.93156">
        <ele>448</ele>
        <time>2022-11-08T09:13:59.000Z</time>
      </trkpt>
      <trkpt lat="42.44199" lon="2.93159">
        <ele>448</ele>
        <time>2022-11-08T09:14:20.000Z</time>
      </trkpt>
      <trkpt lat="42.44205" lon="2.9315">
        <ele>447</ele>
        <time>2022-11-08T09:14:32.000Z</time>
      </trkpt>
      <trkpt lat="42.44207" lon="2.93146">
        <ele>447</ele>
        <time>2022-11-08T09:14:36.000Z</time>
      </trkpt>
      <trkpt lat="42.44208" lon="2.93138">
        <ele>446</ele>
        <time>2022-11-08T09:14:45.000Z</time>
      </trkpt>
      <trkpt lat="42.44213" lon="2.93136">
        <ele>445</ele>
        <time>2022-11-08T09:14:58.000Z</time>
      </trkpt>
      <trkpt lat="42.44219" lon="2.93145">
        <ele>446</ele>
        <time>2022-11-08T09:15:11.000Z</time>
      </trkpt>
      <trkpt lat="42.44225" lon="2.9316">
        <ele>446</ele>
        <time>2022-11-08T09:15:25.000Z</time>
      </trkpt>
      <trkpt lat="42.44231" lon="2.93167">
        <ele>445</ele>
        <time>2022-11-08T09:15:37.000Z</time>
      </trkpt>
      <trkpt lat="42.44234" lon="2.93172">
        <ele>445</ele>
        <time>2022-11-08T09:15:42.000Z</time>
      </trkpt>
      <trkpt lat="42.44236" lon="2.93196">
        <ele>447</ele>
        <time>2022-11-08T09:16:04.000Z</time>
      </trkpt>
      <trkpt lat="42.4424" lon="2.93208">
        <ele>450</ele>
        <time>2022-11-08T09:16:19.000Z</time>
      </trkpt>
      <trkpt lat="42.44247" lon="2.93217">
        <ele>451</ele>
        <time>2022-11-08T09:16:32.000Z</time>
      </trkpt>
      <trkpt lat="42.44247" lon="2.93226">
        <ele>453</ele>
        <time>2022-11-08T09:16:44.000Z</time>
      </trkpt>
      <trkpt lat="42.44251" lon="2.93234">
        <ele>454</ele>
        <time>2022-11-08T09:16:57.000Z</time>
      </trkpt>
      <trkpt lat="42.44257" lon="2.9325">
        <ele>457</ele>
        <time>2022-11-08T09:17:14.000Z</time>
      </trkpt>
      <trkpt lat="42.44263" lon="2.93271">
        <ele>458</ele>
        <time>2022-11-08T09:17:27.000Z</time>
      </trkpt>
      <trkpt lat="42.44265" lon="2.93277">
        <ele>458</ele>
        <time>2022-11-08T09:17:31.000Z</time>
      </trkpt>
      <trkpt lat="42.44268" lon="2.93291">
        <ele>458</ele>
        <time>2022-11-08T09:17:39.000Z</time>
      </trkpt>
      <trkpt lat="42.44272" lon="2.93305">
        <ele>458</ele>
        <time>2022-11-08T09:17:50.000Z</time>
      </trkpt>
      <trkpt lat="42.44276" lon="2.93314">
        <ele>459</ele>
        <time>2022-11-08T09:18:00.000Z</time>
      </trkpt>
      <trkpt lat="42.44279" lon="2.93335">
        <ele>461</ele>
        <time>2022-11-08T09:18:15.000Z</time>
      </trkpt>
      <trkpt lat="42.44278" lon="2.9334">
        <ele>462</ele>
        <time>2022-11-08T09:18:19.000Z</time>
      </trkpt>
      <trkpt lat="42.44271" lon="2.93362">
        <ele>464</ele>
        <time>2022-11-08T09:18:36.000Z</time>
      </trkpt>
      <trkpt lat="42.4427" lon="2.93375">
        <ele>466</ele>
        <time>2022-11-08T09:18:49.000Z</time>
      </trkpt>
      <trkpt lat="42.44273" lon="2.93388">
        <ele>468</ele>
        <time>2022-11-08T09:19:04.000Z</time>
      </trkpt>
      <trkpt lat="42.44279" lon="2.93394">
        <ele>470</ele>
        <time>2022-11-08T09:19:16.000Z</time>
      </trkpt>
      <trkpt lat="42.44286" lon="2.93403">
        <ele>472</ele>
        <time>2022-11-08T09:19:29.000Z</time>
      </trkpt>
      <trkpt lat="42.44293" lon="2.93414">
        <ele>473</ele>
        <time>2022-11-08T09:19:40.000Z</time>
      </trkpt>
      <trkpt lat="42.443" lon="2.93417">
        <ele>474</ele>
        <time>2022-11-08T09:19:51.000Z</time>
      </trkpt>
      <trkpt lat="42.4431" lon="2.93423">
        <ele>476</ele>
        <time>2022-11-08T09:20:07.000Z</time>
      </trkpt>
      <trkpt lat="42.4432" lon="2.93429">
        <ele>475</ele>
        <time>2022-11-08T09:20:21.000Z</time>
      </trkpt>
      <trkpt lat="42.44323" lon="2.9343">
        <ele>475</ele>
        <time>2022-11-08T09:20:24.000Z</time>
      </trkpt>
      <trkpt lat="42.44336" lon="2.93437">
        <ele>475</ele>
        <time>2022-11-08T09:20:37.000Z</time>
      </trkpt>
      <trkpt lat="42.44343" lon="2.93441">
        <ele>475</ele>
        <time>2022-11-08T09:20:44.000Z</time>
      </trkpt>
      <trkpt lat="42.44359" lon="2.93448">
        <ele>476</ele>
        <time>2022-11-08T09:20:59.000Z</time>
      </trkpt>
      <trkpt lat="42.44363" lon="2.93452">
        <ele>476</ele>
        <time>2022-11-08T09:21:04.000Z</time>
      </trkpt>
      <trkpt lat="42.44371" lon="2.93456">
        <ele>476</ele>
        <time>2022-11-08T09:21:10.000Z</time>
      </trkpt>
      <trkpt lat="42.44372" lon="2.93459">
        <ele>476</ele>
        <time>2022-11-08T09:21:12.000Z</time>
      </trkpt>
      <trkpt lat="42.44379" lon="2.93473">
        <ele>476</ele>
        <time>2022-11-08T09:21:22.000Z</time>
      </trkpt>
      <trkpt lat="42.44382" lon="2.9348">
        <ele>476</ele>
        <time>2022-11-08T09:21:26.000Z</time>
      </trkpt>
      <trkpt lat="42.44392" lon="2.93485">
        <ele>476</ele>
        <time>2022-11-08T09:21:37.000Z</time>
      </trkpt>
      <trkpt lat="42.44403" lon="2.93495">
        <ele>475</ele>
        <time>2022-11-08T09:21:49.000Z</time>
      </trkpt>
      <trkpt lat="42.44406" lon="2.93501">
        <ele>475</ele>
        <time>2022-11-08T09:21:54.000Z</time>
      </trkpt>
      <trkpt lat="42.44411" lon="2.93514">
        <ele>475</ele>
        <time>2022-11-08T09:22:06.000Z</time>
      </trkpt>
      <trkpt lat="42.44416" lon="2.93524">
        <ele>474</ele>
        <time>2022-11-08T09:22:17.000Z</time>
      </trkpt>
      <trkpt lat="42.44419" lon="2.93541">
        <ele>473</ele>
        <time>2022-11-08T09:22:31.000Z</time>
      </trkpt>
      <trkpt lat="42.44424" lon="2.93553">
        <ele>473</ele>
        <time>2022-11-08T09:22:41.000Z</time>
      </trkpt>
      <trkpt lat="42.44426" lon="2.93582">
        <ele>475</ele>
        <time>2022-11-08T09:22:59.000Z</time>
      </trkpt>
      <trkpt lat="42.44425" lon="2.93586">
        <ele>476</ele>
        <time>2022-11-08T09:23:13.000Z</time>
      </trkpt>
      <trkpt lat="42.44426" lon="2.93594">
        <ele>476</ele>
        <time>2022-11-08T09:23:34.000Z</time>
      </trkpt>
      <trkpt lat="42.44426" lon="2.93592">
        <ele>476</ele>
        <time>2022-11-08T09:24:09.000Z</time>
      </trkpt>
      <trkpt lat="42.44425" lon="2.93594">
        <ele>476</ele>
        <time>2022-11-08T09:24:41.000Z</time>
      </trkpt>
      <trkpt lat="42.44426" lon="2.93594">
        <ele>476</ele>
        <time>2022-11-08T09:25:12.000Z</time>
      </trkpt>
      <trkpt lat="42.44428" lon="2.93593">
        <ele>476</ele>
        <time>2022-11-08T09:25:40.000Z</time>
      </trkpt>
      <trkpt lat="42.44427" lon="2.93588">
        <ele>476</ele>
        <time>2022-11-08T09:26:10.000Z</time>
      </trkpt>
      <trkpt lat="42.44425" lon="2.93586">
        <ele>476</ele>
        <time>2022-11-08T09:26:37.000Z</time>
      </trkpt>
      <trkpt lat="42.44426" lon="2.93587">
        <ele>476</ele>
        <time>2022-11-08T09:27:09.000Z</time>
      </trkpt>
      <trkpt lat="42.44429" lon="2.93585">
        <ele>476</ele>
        <time>2022-11-08T09:27:44.000Z</time>
      </trkpt>
      <trkpt lat="42.44429" lon="2.93584">
        <ele>476</ele>
        <time>2022-11-08T09:28:12.000Z</time>
      </trkpt>
      <trkpt lat="42.44426" lon="2.93592">
        <ele>477</ele>
        <time>2022-11-08T09:29:01.000Z</time>
      </trkpt>
      <trkpt lat="42.44426" lon="2.93592">
        <ele>477</ele>
        <time>2022-11-08T09:29:22.000Z</time>
      </trkpt>
      <trkpt lat="42.44427" lon="2.93593">
        <ele>477</ele>
        <time>2022-11-08T09:29:49.000Z</time>
      </trkpt>
      <trkpt lat="42.44435" lon="2.93602">
        <ele>477</ele>
        <time>2022-11-08T09:30:06.000Z</time>
      </trkpt>
      <trkpt lat="42.44444" lon="2.93607">
        <ele>473</ele>
        <time>2022-11-08T09:30:30.000Z</time>
      </trkpt>
      <trkpt lat="42.44456" lon="2.93611">
        <ele>470</ele>
        <time>2022-11-08T09:30:47.000Z</time>
      </trkpt>
      <trkpt lat="42.44458" lon="2.93613">
        <ele>470</ele>
        <time>2022-11-08T09:30:51.000Z</time>
      </trkpt>
      <trkpt lat="42.44475" lon="2.9362">
        <ele>468</ele>
        <time>2022-11-08T09:31:07.000Z</time>
      </trkpt>
      <trkpt lat="42.44484" lon="2.93621">
        <ele>468</ele>
        <time>2022-11-08T09:31:18.000Z</time>
      </trkpt>
      <trkpt lat="42.44501" lon="2.93617">
        <ele>467</ele>
        <time>2022-11-08T09:31:34.000Z</time>
      </trkpt>
      <trkpt lat="42.44511" lon="2.93612">
        <ele>467</ele>
        <time>2022-11-08T09:31:44.000Z</time>
      </trkpt>
      <trkpt lat="42.44523" lon="2.93605">
        <ele>467</ele>
        <time>2022-11-08T09:32:00.000Z</time>
      </trkpt>
      <trkpt lat="42.4453" lon="2.93599">
        <ele>466</ele>
        <time>2022-11-08T09:32:18.000Z</time>
      </trkpt>
      <trkpt lat="42.44529" lon="2.93597">
        <ele>466</ele>
        <time>2022-11-08T09:32:20.000Z</time>
      </trkpt>
      <trkpt lat="42.44529" lon="2.93584">
        <ele>464</ele>
        <time>2022-11-08T09:32:37.000Z</time>
      </trkpt>
      <trkpt lat="42.4453" lon="2.93562">
        <ele>462</ele>
        <time>2022-11-08T09:32:58.000Z</time>
      </trkpt>
      <trkpt lat="42.4453" lon="2.93553">
        <ele>462</ele>
        <time>2022-11-08T09:33:05.000Z</time>
      </trkpt>
      <trkpt lat="42.4454" lon="2.93526">
        <ele>460</ele>
        <time>2022-11-08T09:33:31.000Z</time>
      </trkpt>
      <trkpt lat="42.44548" lon="2.93511">
        <ele>458</ele>
        <time>2022-11-08T09:33:46.000Z</time>
      </trkpt>
      <trkpt lat="42.44561" lon="2.93499">
        <ele>458</ele>
        <time>2022-11-08T09:34:01.000Z</time>
      </trkpt>
      <trkpt lat="42.44564" lon="2.93497">
        <ele>458</ele>
        <time>2022-11-08T09:34:05.000Z</time>
      </trkpt>
      <trkpt lat="42.4457" lon="2.93495">
        <ele>459</ele>
        <time>2022-11-08T09:34:13.000Z</time>
      </trkpt>
      <trkpt lat="42.44587" lon="2.93493">
        <ele>457</ele>
        <time>2022-11-08T09:34:34.000Z</time>
      </trkpt>
      <trkpt lat="42.44589" lon="2.93493">
        <ele>456</ele>
        <time>2022-11-08T09:35:12.000Z</time>
      </trkpt>
      <trkpt lat="42.4459" lon="2.93491">
        <ele>456</ele>
        <time>2022-11-08T09:35:44.000Z</time>
      </trkpt>
      <trkpt lat="42.44597" lon="2.93478">
        <ele>455</ele>
        <time>2022-11-08T09:36:07.000Z</time>
      </trkpt>
      <trkpt lat="42.4461" lon="2.93463">
        <ele>453</ele>
        <time>2022-11-08T09:36:27.000Z</time>
      </trkpt>
      <trkpt lat="42.44616" lon="2.93455">
        <ele>451</ele>
        <time>2022-11-08T09:36:39.000Z</time>
      </trkpt>
      <trkpt lat="42.44618" lon="2.93453">
        <ele>451</ele>
        <time>2022-11-08T09:36:41.000Z</time>
      </trkpt>
      <trkpt lat="42.44627" lon="2.93446">
        <ele>450</ele>
        <time>2022-11-08T09:36:52.000Z</time>
      </trkpt>
      <trkpt lat="42.44635" lon="2.93446">
        <ele>450</ele>
        <time>2022-11-08T09:37:00.000Z</time>
      </trkpt>
      <trkpt lat="42.44637" lon="2.93444">
        <ele>449</ele>
        <time>2022-11-08T09:37:04.000Z</time>
      </trkpt>
      <trkpt lat="42.44647" lon="2.9344">
        <ele>448</ele>
        <time>2022-11-08T09:37:21.000Z</time>
      </trkpt>
      <trkpt lat="42.4466" lon="2.93427">
        <ele>447</ele>
        <time>2022-11-08T09:37:42.000Z</time>
      </trkpt>
      <trkpt lat="42.44673" lon="2.93426">
        <ele>446</ele>
        <time>2022-11-08T09:37:56.000Z</time>
      </trkpt>
      <trkpt lat="42.44679" lon="2.93422">
        <ele>445</ele>
        <time>2022-11-08T09:38:12.000Z</time>
      </trkpt>
      <trkpt lat="42.44685" lon="2.93417">
        <ele>445</ele>
        <time>2022-11-08T09:38:29.000Z</time>
      </trkpt>
      <trkpt lat="42.44687" lon="2.93422">
        <ele>445</ele>
        <time>2022-11-08T09:38:50.000Z</time>
      </trkpt>
      <trkpt lat="42.44688" lon="2.93423">
        <ele>448</ele>
        <time>2022-11-08T09:39:17.000Z</time>
      </trkpt>
      <trkpt lat="42.44685" lon="2.93426">
        <ele>452</ele>
        <time>2022-11-08T09:39:39.000Z</time>
      </trkpt>
      <trkpt lat="42.44688" lon="2.9345">
        <ele>455</ele>
        <time>2022-11-08T09:39:57.000Z</time>
      </trkpt>
      <trkpt lat="42.44682" lon="2.93466">
        <ele>458</ele>
        <time>2022-11-08T09:40:29.000Z</time>
      </trkpt>
      <trkpt lat="42.44681" lon="2.93486">
        <ele>461</ele>
        <time>2022-11-08T09:40:48.000Z</time>
      </trkpt>
      <trkpt lat="42.44686" lon="2.93505">
        <ele>463</ele>
        <time>2022-11-08T09:41:12.000Z</time>
      </trkpt>
      <trkpt lat="42.4469" lon="2.93514">
        <ele>464</ele>
        <time>2022-11-08T09:41:27.000Z</time>
      </trkpt>
      <trkpt lat="42.44695" lon="2.93526">
        <ele>467</ele>
        <time>2022-11-08T09:41:43.000Z</time>
      </trkpt>
      <trkpt lat="42.44694" lon="2.93534">
        <ele>468</ele>
        <time>2022-11-08T09:41:51.000Z</time>
      </trkpt>
      <trkpt lat="42.44694" lon="2.93546">
        <ele>469</ele>
        <time>2022-11-08T09:41:59.000Z</time>
      </trkpt>
      <trkpt lat="42.4469" lon="2.93559">
        <ele>470</ele>
        <time>2022-11-08T09:42:07.000Z</time>
      </trkpt>
      <trkpt lat="42.44692" lon="2.93577">
        <ele>470</ele>
        <time>2022-11-08T09:42:52.000Z</time>
      </trkpt>
      <trkpt lat="42.44692" lon="2.93603">
        <ele>472</ele>
        <time>2022-11-08T09:43:14.000Z</time>
      </trkpt>
      <trkpt lat="42.44694" lon="2.93625">
        <ele>472</ele>
        <time>2022-11-08T09:43:33.000Z</time>
      </trkpt>
      <trkpt lat="42.44693" lon="2.93636">
        <ele>469</ele>
        <time>2022-11-08T09:43:58.000Z</time>
      </trkpt>
      <trkpt lat="42.44697" lon="2.93636">
        <ele>469</ele>
        <time>2022-11-08T09:44:30.000Z</time>
      </trkpt>
      <trkpt lat="42.44694" lon="2.93646">
        <ele>468</ele>
        <time>2022-11-08T09:44:55.000Z</time>
      </trkpt>
      <trkpt lat="42.447" lon="2.93656">
        <ele>469</ele>
        <time>2022-11-08T09:45:07.000Z</time>
      </trkpt>
      <trkpt lat="42.44706" lon="2.93675">
        <ele>468</ele>
        <time>2022-11-08T09:45:22.000Z</time>
      </trkpt>
      <trkpt lat="42.4471" lon="2.93686">
        <ele>469</ele>
        <time>2022-11-08T09:45:31.000Z</time>
      </trkpt>
      <trkpt lat="42.44712" lon="2.93693">
        <ele>469</ele>
        <time>2022-11-08T09:45:36.000Z</time>
      </trkpt>
      <trkpt lat="42.44714" lon="2.9372">
        <ele>469</ele>
        <time>2022-11-08T09:45:53.000Z</time>
      </trkpt>
      <trkpt lat="42.44717" lon="2.9374">
        <ele>470</ele>
        <time>2022-11-08T09:46:11.000Z</time>
      </trkpt>
      <trkpt lat="42.44718" lon="2.93746">
        <ele>470</ele>
        <time>2022-11-08T09:46:15.000Z</time>
      </trkpt>
      <trkpt lat="42.44732" lon="2.93765">
        <ele>470</ele>
        <time>2022-11-08T09:46:36.000Z</time>
      </trkpt>
      <trkpt lat="42.44751" lon="2.93782">
        <ele>471</ele>
        <time>2022-11-08T09:46:55.000Z</time>
      </trkpt>
      <trkpt lat="42.44768" lon="2.93791">
        <ele>471</ele>
        <time>2022-11-08T09:47:14.000Z</time>
      </trkpt>
      <trkpt lat="42.44778" lon="2.93798">
        <ele>471</ele>
        <time>2022-11-08T09:47:28.000Z</time>
      </trkpt>
      <trkpt lat="42.44783" lon="2.93801">
        <ele>472</ele>
        <time>2022-11-08T09:47:33.000Z</time>
      </trkpt>
      <trkpt lat="42.44791" lon="2.93806">
        <ele>473</ele>
        <time>2022-11-08T09:47:42.000Z</time>
      </trkpt>
      <trkpt lat="42.44806" lon="2.93809">
        <ele>475</ele>
        <time>2022-11-08T09:47:59.000Z</time>
      </trkpt>
      <trkpt lat="42.44827" lon="2.9381">
        <ele>477</ele>
        <time>2022-11-08T09:48:22.000Z</time>
      </trkpt>
      <trkpt lat="42.44842" lon="2.93807">
        <ele>479</ele>
        <time>2022-11-08T09:48:39.000Z</time>
      </trkpt>
      <trkpt lat="42.4485" lon="2.93806">
        <ele>479</ele>
        <time>2022-11-08T09:48:48.000Z</time>
      </trkpt>
      <trkpt lat="42.44859" lon="2.93801">
        <ele>480</ele>
        <time>2022-11-08T09:48:59.000Z</time>
      </trkpt>
      <trkpt lat="42.44871" lon="2.93798">
        <ele>480</ele>
        <time>2022-11-08T09:49:12.000Z</time>
      </trkpt>
      <trkpt lat="42.44886" lon="2.93792">
        <ele>480</ele>
        <time>2022-11-08T09:49:27.000Z</time>
      </trkpt>
      <trkpt lat="42.44902" lon="2.93792">
        <ele>481</ele>
        <time>2022-11-08T09:49:39.000Z</time>
      </trkpt>
      <trkpt lat="42.44915" lon="2.9379">
        <ele>481</ele>
        <time>2022-11-08T09:49:53.000Z</time>
      </trkpt>
      <trkpt lat="42.44927" lon="2.93787">
        <ele>480</ele>
        <time>2022-11-08T09:50:06.000Z</time>
      </trkpt>
      <trkpt lat="42.44937" lon="2.93785">
        <ele>482</ele>
        <time>2022-11-08T09:50:18.000Z</time>
      </trkpt>
      <trkpt lat="42.4495" lon="2.93785">
        <ele>482</ele>
        <time>2022-11-08T09:50:31.000Z</time>
      </trkpt>
      <trkpt lat="42.44954" lon="2.93785">
        <ele>482</ele>
        <time>2022-11-08T09:50:34.000Z</time>
      </trkpt>
      <trkpt lat="42.44968" lon="2.93781">
        <ele>482</ele>
        <time>2022-11-08T09:50:50.000Z</time>
      </trkpt>
      <trkpt lat="42.4497" lon="2.9378">
        <ele>483</ele>
        <time>2022-11-08T09:51:10.000Z</time>
      </trkpt>
      <trkpt lat="42.44967" lon="2.93778">
        <ele>483</ele>
        <time>2022-11-08T09:51:42.000Z</time>
      </trkpt>
      <trkpt lat="42.44968" lon="2.93782">
        <ele>482</ele>
        <time>2022-11-08T09:52:13.000Z</time>
      </trkpt>
      <trkpt lat="42.44972" lon="2.93781">
        <ele>483</ele>
        <time>2022-11-08T09:52:33.000Z</time>
      </trkpt>
      <trkpt lat="42.44973" lon="2.93781">
        <ele>483</ele>
        <time>2022-11-08T09:52:54.000Z</time>
      </trkpt>
      <trkpt lat="42.44976" lon="2.93781">
        <ele>483</ele>
        <time>2022-11-08T09:53:13.000Z</time>
      </trkpt>
      <trkpt lat="42.44975" lon="2.93778">
        <ele>483</ele>
        <time>2022-11-08T09:53:37.000Z</time>
      </trkpt>
      <trkpt lat="42.44975" lon="2.93777">
        <ele>483</ele>
        <time>2022-11-08T09:54:09.000Z</time>
      </trkpt>
      <trkpt lat="42.44979" lon="2.9378">
        <ele>483</ele>
        <time>2022-11-08T09:54:47.000Z</time>
      </trkpt>
      <trkpt lat="42.4498" lon="2.9378">
        <ele>483</ele>
        <time>2022-11-08T09:55:18.000Z</time>
      </trkpt>
      <trkpt lat="42.44982" lon="2.93781">
        <ele>483</ele>
        <time>2022-11-08T09:55:43.000Z</time>
      </trkpt>
      <trkpt lat="42.44991" lon="2.93779">
        <ele>483</ele>
        <time>2022-11-08T09:56:02.000Z</time>
      </trkpt>
      <trkpt lat="42.45" lon="2.93775">
        <ele>484</ele>
        <time>2022-11-08T09:56:12.000Z</time>
      </trkpt>
      <trkpt lat="42.45016" lon="2.93769">
        <ele>485</ele>
        <time>2022-11-08T09:56:28.000Z</time>
      </trkpt>
      <trkpt lat="42.45028" lon="2.93767">
        <ele>486</ele>
        <time>2022-11-08T09:56:46.000Z</time>
      </trkpt>
      <trkpt lat="42.45031" lon="2.93766">
        <ele>486</ele>
        <time>2022-11-08T09:57:05.000Z</time>
      </trkpt>
      <trkpt lat="42.4504" lon="2.93763">
        <ele>487</ele>
        <time>2022-11-08T09:57:26.000Z</time>
      </trkpt>
      <trkpt lat="42.45045" lon="2.93777">
        <ele>488</ele>
        <time>2022-11-08T09:57:47.000Z</time>
      </trkpt>
      <trkpt lat="42.45046" lon="2.93797">
        <ele>491</ele>
        <time>2022-11-08T09:58:09.000Z</time>
      </trkpt>
      <trkpt lat="42.45048" lon="2.93806">
        <ele>492</ele>
        <time>2022-11-08T09:58:35.000Z</time>
      </trkpt>
      <trkpt lat="42.45048" lon="2.93835">
        <ele>493</ele>
        <time>2022-11-08T09:59:00.000Z</time>
      </trkpt>
      <trkpt lat="42.45051" lon="2.93846">
        <ele>495</ele>
        <time>2022-11-08T09:59:17.000Z</time>
      </trkpt>
      <trkpt lat="42.45044" lon="2.93845">
        <ele>495</ele>
        <time>2022-11-08T09:59:40.000Z</time>
      </trkpt>
      <trkpt lat="42.45044" lon="2.93844">
        <ele>495</ele>
        <time>2022-11-08T10:00:00.000Z</time>
      </trkpt>
      <trkpt lat="42.45049" lon="2.93843">
        <ele>495</ele>
        <time>2022-11-08T10:00:26.000Z</time>
      </trkpt>
      <trkpt lat="42.45049" lon="2.93845">
        <ele>496</ele>
        <time>2022-11-08T10:00:41.000Z</time>
      </trkpt>
      <trkpt lat="42.45048" lon="2.93831">
        <ele>495</ele>
        <time>2022-11-08T10:00:59.000Z</time>
      </trkpt>
      <trkpt lat="42.45049" lon="2.93828">
        <ele>495</ele>
        <time>2022-11-08T10:01:01.000Z</time>
      </trkpt>
      <trkpt lat="42.4505" lon="2.93825">
        <ele>495</ele>
        <time>2022-11-08T10:01:03.000Z</time>
      </trkpt>
      <trkpt lat="42.45051" lon="2.938">
        <ele>493</ele>
        <time>2022-11-08T10:01:23.000Z</time>
      </trkpt>
      <trkpt lat="42.45053" lon="2.93793">
        <ele>493</ele>
        <time>2022-11-08T10:01:37.000Z</time>
      </trkpt>
      <trkpt lat="42.45056" lon="2.93791">
        <ele>494</ele>
        <time>2022-11-08T10:01:51.000Z</time>
      </trkpt>
      <trkpt lat="42.45054" lon="2.93795">
        <ele>495</ele>
        <time>2022-11-08T10:02:19.000Z</time>
      </trkpt>
      <trkpt lat="42.45048" lon="2.93788">
        <ele>493</ele>
        <time>2022-11-08T10:02:36.000Z</time>
      </trkpt>
      <trkpt lat="42.45047" lon="2.93775">
        <ele>491</ele>
        <time>2022-11-08T10:02:58.000Z</time>
      </trkpt>
      <trkpt lat="42.4504" lon="2.93761">
        <ele>488</ele>
        <time>2022-11-08T10:03:16.000Z</time>
      </trkpt>
      <trkpt lat="42.45037" lon="2.93749">
        <ele>490</ele>
        <time>2022-11-08T10:03:37.000Z</time>
      </trkpt>
      <trkpt lat="42.45034" lon="2.93756">
        <ele>490</ele>
        <time>2022-11-08T10:04:05.000Z</time>
      </trkpt>
      <trkpt lat="42.45031" lon="2.9376">
        <ele>490</ele>
        <time>2022-11-08T10:04:32.000Z</time>
      </trkpt>
      <trkpt lat="42.4503" lon="2.93764">
        <ele>490</ele>
        <time>2022-11-08T10:05:04.000Z</time>
      </trkpt>
      <trkpt lat="42.45032" lon="2.93763">
        <ele>490</ele>
        <time>2022-11-08T10:05:25.000Z</time>
      </trkpt>
      <trkpt lat="42.45032" lon="2.9376">
        <ele>490</ele>
        <time>2022-11-08T10:05:49.000Z</time>
      </trkpt>
      <trkpt lat="42.45037" lon="2.93752">
        <ele>492</ele>
        <time>2022-11-08T10:06:17.000Z</time>
      </trkpt>
      <trkpt lat="42.45046" lon="2.93746">
        <ele>494</ele>
        <time>2022-11-08T10:06:30.000Z</time>
      </trkpt>
      <trkpt lat="42.45049" lon="2.93746">
        <ele>495</ele>
        <time>2022-11-08T10:06:36.000Z</time>
      </trkpt>
      <trkpt lat="42.45062" lon="2.93741">
        <ele>498</ele>
        <time>2022-11-08T10:06:55.000Z</time>
      </trkpt>
      <trkpt lat="42.45072" lon="2.93747">
        <ele>500</ele>
        <time>2022-11-08T10:07:15.000Z</time>
      </trkpt>
      <trkpt lat="42.45079" lon="2.93761">
        <ele>503</ele>
        <time>2022-11-08T10:07:34.000Z</time>
      </trkpt>
      <trkpt lat="42.45079" lon="2.93775">
        <ele>504</ele>
        <time>2022-11-08T10:07:51.000Z</time>
      </trkpt>
      <trkpt lat="42.45083" lon="2.93786">
        <ele>507</ele>
        <time>2022-11-08T10:08:12.000Z</time>
      </trkpt>
      <trkpt lat="42.45084" lon="2.93803">
        <ele>509</ele>
        <time>2022-11-08T10:08:31.000Z</time>
      </trkpt>
      <trkpt lat="42.45089" lon="2.93812">
        <ele>509</ele>
        <time>2022-11-08T10:08:49.000Z</time>
      </trkpt>
      <trkpt lat="42.45088" lon="2.93822">
        <ele>509</ele>
        <time>2022-11-08T10:09:08.000Z</time>
      </trkpt>
      <trkpt lat="42.45091" lon="2.93826">
        <ele>508</ele>
        <time>2022-11-08T10:09:19.000Z</time>
      </trkpt>
      <trkpt lat="42.45088" lon="2.93834">
        <ele>507</ele>
        <time>2022-11-08T10:09:41.000Z</time>
      </trkpt>
      <trkpt lat="42.45089" lon="2.93853">
        <ele>506</ele>
        <time>2022-11-08T10:10:05.000Z</time>
      </trkpt>
      <trkpt lat="42.45086" lon="2.93868">
        <ele>504</ele>
        <time>2022-11-08T10:10:26.000Z</time>
      </trkpt>
      <trkpt lat="42.45087" lon="2.93871">
        <ele>504</ele>
        <time>2022-11-08T10:10:47.000Z</time>
      </trkpt>
      <trkpt lat="42.45096" lon="2.9389">
        <ele>503</ele>
        <time>2022-11-08T10:11:07.000Z</time>
      </trkpt>
      <trkpt lat="42.45102" lon="2.93902">
        <ele>502</ele>
        <time>2022-11-08T10:11:19.000Z</time>
      </trkpt>
      <trkpt lat="42.45113" lon="2.93914">
        <ele>502</ele>
        <time>2022-11-08T10:11:38.000Z</time>
      </trkpt>
      <trkpt lat="42.45119" lon="2.93916">
        <ele>501</ele>
        <time>2022-11-08T10:11:58.000Z</time>
      </trkpt>
      <trkpt lat="42.45122" lon="2.93917">
        <ele>501</ele>
        <time>2022-11-08T10:12:21.000Z</time>
      </trkpt>
      <trkpt lat="42.45134" lon="2.93932">
        <ele>500</ele>
        <time>2022-11-08T10:12:41.000Z</time>
      </trkpt>
      <trkpt lat="42.45135" lon="2.93943">
        <ele>498</ele>
        <time>2022-11-08T10:12:59.000Z</time>
      </trkpt>
      <trkpt lat="42.45132" lon="2.93951">
        <ele>497</ele>
        <time>2022-11-08T10:13:20.000Z</time>
      </trkpt>
      <trkpt lat="42.45133" lon="2.93968">
        <ele>494</ele>
        <time>2022-11-08T10:13:38.000Z</time>
      </trkpt>
      <trkpt lat="42.45142" lon="2.93964">
        <ele>493</ele>
        <time>2022-11-08T10:13:58.000Z</time>
      </trkpt>
      <trkpt lat="42.45136" lon="2.93965">
        <ele>494</ele>
        <time>2022-11-08T10:14:22.000Z</time>
      </trkpt>
      <trkpt lat="42.45129" lon="2.93963">
        <ele>494</ele>
        <time>2022-11-08T10:14:41.000Z</time>
      </trkpt>
      <trkpt lat="42.45135" lon="2.93965">
        <ele>494</ele>
        <time>2022-11-08T10:15:10.000Z</time>
      </trkpt>
      <trkpt lat="42.45148" lon="2.93964">
        <ele>494</ele>
        <time>2022-11-08T10:15:30.000Z</time>
      </trkpt>
      <trkpt lat="42.45165" lon="2.93963">
        <ele>494</ele>
        <time>2022-11-08T10:15:48.000Z</time>
      </trkpt>
      <trkpt lat="42.45175" lon="2.93959">
        <ele>494</ele>
        <time>2022-11-08T10:16:02.000Z</time>
      </trkpt>
      <trkpt lat="42.45181" lon="2.93957">
        <ele>494</ele>
        <time>2022-11-08T10:16:08.000Z</time>
      </trkpt>
      <trkpt lat="42.45189" lon="2.93956">
        <ele>493</ele>
        <time>2022-11-08T10:16:14.000Z</time>
      </trkpt>
      <trkpt lat="42.45192" lon="2.93954">
        <ele>493</ele>
        <time>2022-11-08T10:16:17.000Z</time>
      </trkpt>
      <trkpt lat="42.45206" lon="2.93951">
        <ele>493</ele>
        <time>2022-11-08T10:16:25.000Z</time>
      </trkpt>
      <trkpt lat="42.4521" lon="2.93949">
        <ele>493</ele>
        <time>2022-11-08T10:16:28.000Z</time>
      </trkpt>
      <trkpt lat="42.45238" lon="2.93938">
        <ele>491</ele>
        <time>2022-11-08T10:16:53.000Z</time>
      </trkpt>
      <trkpt lat="42.45255" lon="2.93937">
        <ele>491</ele>
        <time>2022-11-08T10:17:09.000Z</time>
      </trkpt>
      <trkpt lat="42.45264" lon="2.93936">
        <ele>491</ele>
        <time>2022-11-08T10:17:17.000Z</time>
      </trkpt>
      <trkpt lat="42.45274" lon="2.93936">
        <ele>491</ele>
        <time>2022-11-08T10:17:26.000Z</time>
      </trkpt>
      <trkpt lat="42.45284" lon="2.93936">
        <ele>490</ele>
        <time>2022-11-08T10:17:39.000Z</time>
      </trkpt>
      <trkpt lat="42.45307" lon="2.93937">
        <ele>490</ele>
        <time>2022-11-08T10:18:02.000Z</time>
      </trkpt>
      <trkpt lat="42.4532" lon="2.93935">
        <ele>490</ele>
        <time>2022-11-08T10:18:15.000Z</time>
      </trkpt>
      <trkpt lat="42.4534" lon="2.9393">
        <ele>489</ele>
        <time>2022-11-08T10:18:33.000Z</time>
      </trkpt>
      <trkpt lat="42.45348" lon="2.93929">
        <ele>489</ele>
        <time>2022-11-08T10:18:49.000Z</time>
      </trkpt>
      <trkpt lat="42.4535" lon="2.93925">
        <ele>488</ele>
        <time>2022-11-08T10:19:02.000Z</time>
      </trkpt>
      <trkpt lat="42.45352" lon="2.93923">
        <ele>488</ele>
        <time>2022-11-08T10:19:14.000Z</time>
      </trkpt>
      <trkpt lat="42.4536" lon="2.93923">
        <ele>488</ele>
        <time>2022-11-08T10:19:30.000Z</time>
      </trkpt>
      <trkpt lat="42.45364" lon="2.93924">
        <ele>488</ele>
        <time>2022-11-08T10:19:37.000Z</time>
      </trkpt>
      <trkpt lat="42.45372" lon="2.9393">
        <ele>488</ele>
        <time>2022-11-08T10:19:53.000Z</time>
      </trkpt>
      <trkpt lat="42.4537" lon="2.93933">
        <ele>488</ele>
        <time>2022-11-08T10:19:58.000Z</time>
      </trkpt>
      <trkpt lat="42.45354" lon="2.93946">
        <ele>486</ele>
        <time>2022-11-08T10:20:14.000Z</time>
      </trkpt>
      <trkpt lat="42.45348" lon="2.93949">
        <ele>486</ele>
        <time>2022-11-08T10:20:19.000Z</time>
      </trkpt>
      <trkpt lat="42.45333" lon="2.93963">
        <ele>484</ele>
        <time>2022-11-08T10:20:34.000Z</time>
      </trkpt>
      <trkpt lat="42.4531" lon="2.93979">
        <ele>482</ele>
        <time>2022-11-08T10:20:55.000Z</time>
      </trkpt>
      <trkpt lat="42.45303" lon="2.93986">
        <ele>482</ele>
        <time>2022-11-08T10:21:13.000Z</time>
      </trkpt>
      <trkpt lat="42.45302" lon="2.9399">
        <ele>482</ele>
        <time>2022-11-08T10:21:35.000Z</time>
      </trkpt>
      <trkpt lat="42.45294" lon="2.93996">
        <ele>481</ele>
        <time>2022-11-08T10:21:43.000Z</time>
      </trkpt>
      <trkpt lat="42.45284" lon="2.94009">
        <ele>481</ele>
        <time>2022-11-08T10:21:55.000Z</time>
      </trkpt>
      <trkpt lat="42.45271" lon="2.94029">
        <ele>480</ele>
        <time>2022-11-08T10:22:12.000Z</time>
      </trkpt>
      <trkpt lat="42.45262" lon="2.94046">
        <ele>480</ele>
        <time>2022-11-08T10:22:27.000Z</time>
      </trkpt>
      <trkpt lat="42.45256" lon="2.94061">
        <ele>480</ele>
        <time>2022-11-08T10:22:37.000Z</time>
      </trkpt>
      <trkpt lat="42.45247" lon="2.94077">
        <ele>479</ele>
        <time>2022-11-08T10:22:51.000Z</time>
      </trkpt>
      <trkpt lat="42.45237" lon="2.94099">
        <ele>477</ele>
        <time>2022-11-08T10:23:06.000Z</time>
      </trkpt>
      <trkpt lat="42.4523" lon="2.94115">
        <ele>476</ele>
        <time>2022-11-08T10:23:20.000Z</time>
      </trkpt>
      <trkpt lat="42.45221" lon="2.94128">
        <ele>476</ele>
        <time>2022-11-08T10:23:33.000Z</time>
      </trkpt>
      <trkpt lat="42.45196" lon="2.94151">
        <ele>475</ele>
        <time>2022-11-08T10:23:57.000Z</time>
      </trkpt>
      <trkpt lat="42.45184" lon="2.9416">
        <ele>475</ele>
        <time>2022-11-08T10:24:10.000Z</time>
      </trkpt>
      <trkpt lat="42.45176" lon="2.94167">
        <ele>475</ele>
        <time>2022-11-08T10:24:19.000Z</time>
      </trkpt>
      <trkpt lat="42.45169" lon="2.94176">
        <ele>475</ele>
        <time>2022-11-08T10:24:26.000Z</time>
      </trkpt>
      <trkpt lat="42.45161" lon="2.94197">
        <ele>475</ele>
        <time>2022-11-08T10:24:42.000Z</time>
      </trkpt>
      <trkpt lat="42.45164" lon="2.94209">
        <ele>474</ele>
        <time>2022-11-08T10:24:50.000Z</time>
      </trkpt>
      <trkpt lat="42.45173" lon="2.94216">
        <ele>473</ele>
        <time>2022-11-08T10:25:04.000Z</time>
      </trkpt>
      <trkpt lat="42.45177" lon="2.94228">
        <ele>473</ele>
        <time>2022-11-08T10:25:30.000Z</time>
      </trkpt>
      <trkpt lat="42.45181" lon="2.94247">
        <ele>471</ele>
        <time>2022-11-08T10:25:44.000Z</time>
      </trkpt>
      <trkpt lat="42.45188" lon="2.94266">
        <ele>470</ele>
        <time>2022-11-08T10:26:00.000Z</time>
      </trkpt>
      <trkpt lat="42.45193" lon="2.94277">
        <ele>470</ele>
        <time>2022-11-08T10:26:12.000Z</time>
      </trkpt>
      <trkpt lat="42.45197" lon="2.94274">
        <ele>471</ele>
        <time>2022-11-08T10:26:27.000Z</time>
      </trkpt>
      <trkpt lat="42.45201" lon="2.94276">
        <ele>472</ele>
        <time>2022-11-08T10:26:50.000Z</time>
      </trkpt>
      <trkpt lat="42.45198" lon="2.94284">
        <ele>471</ele>
        <time>2022-11-08T10:26:59.000Z</time>
      </trkpt>
      <trkpt lat="42.45193" lon="2.94293">
        <ele>471</ele>
        <time>2022-11-08T10:27:27.000Z</time>
      </trkpt>
      <trkpt lat="42.45205" lon="2.94306">
        <ele>471</ele>
        <time>2022-11-08T10:27:46.000Z</time>
      </trkpt>
      <trkpt lat="42.45215" lon="2.94311">
        <ele>471</ele>
        <time>2022-11-08T10:27:58.000Z</time>
      </trkpt>
      <trkpt lat="42.45222" lon="2.94315">
        <ele>471</ele>
        <time>2022-11-08T10:28:16.000Z</time>
      </trkpt>
      <trkpt lat="42.4523" lon="2.94316">
        <ele>471</ele>
        <time>2022-11-08T10:28:38.000Z</time>
      </trkpt>
      <trkpt lat="42.45237" lon="2.94325">
        <ele>469</ele>
        <time>2022-11-08T10:28:57.000Z</time>
      </trkpt>
      <trkpt lat="42.4525" lon="2.94336">
        <ele>466</ele>
        <time>2022-11-08T10:29:16.000Z</time>
      </trkpt>
      <trkpt lat="42.45262" lon="2.94339">
        <ele>464</ele>
        <time>2022-11-08T10:29:36.000Z</time>
      </trkpt>
      <trkpt lat="42.45274" lon="2.94339">
        <ele>462</ele>
        <time>2022-11-08T10:29:51.000Z</time>
      </trkpt>
      <trkpt lat="42.45295" lon="2.94336">
        <ele>459</ele>
        <time>2022-11-08T10:30:11.000Z</time>
      </trkpt>
      <trkpt lat="42.45298" lon="2.94339">
        <ele>459</ele>
        <time>2022-11-08T10:30:33.000Z</time>
      </trkpt>
      <trkpt lat="42.45305" lon="2.94338">
        <ele>458</ele>
        <time>2022-11-08T10:30:53.000Z</time>
      </trkpt>
      <trkpt lat="42.45313" lon="2.94342">
        <ele>458</ele>
        <time>2022-11-08T10:31:16.000Z</time>
      </trkpt>
      <trkpt lat="42.45326" lon="2.94356">
        <ele>457</ele>
        <time>2022-11-08T10:31:36.000Z</time>
      </trkpt>
      <trkpt lat="42.4534" lon="2.94366">
        <ele>455</ele>
        <time>2022-11-08T10:31:55.000Z</time>
      </trkpt>
      <trkpt lat="42.45348" lon="2.94367">
        <ele>455</ele>
        <time>2022-11-08T10:32:05.000Z</time>
      </trkpt>
      <trkpt lat="42.45349" lon="2.94368">
        <ele>454</ele>
        <time>2022-11-08T10:32:07.000Z</time>
      </trkpt>
      <trkpt lat="42.4536" lon="2.94377">
        <ele>454</ele>
        <time>2022-11-08T10:32:28.000Z</time>
      </trkpt>
      <trkpt lat="42.45372" lon="2.94381">
        <ele>452</ele>
        <time>2022-11-08T10:32:44.000Z</time>
      </trkpt>
      <trkpt lat="42.4538" lon="2.94384">
        <ele>451</ele>
        <time>2022-11-08T10:32:58.000Z</time>
      </trkpt>
      <trkpt lat="42.45384" lon="2.94379">
        <ele>450</ele>
        <time>2022-11-08T10:33:12.000Z</time>
      </trkpt>
      <trkpt lat="42.45379" lon="2.94383">
        <ele>449</ele>
        <time>2022-11-08T10:33:37.000Z</time>
      </trkpt>
      <trkpt lat="42.4538" lon="2.94381">
        <ele>450</ele>
        <time>2022-11-08T10:33:59.000Z</time>
      </trkpt>
      <trkpt lat="42.45385" lon="2.94374">
        <ele>450</ele>
        <time>2022-11-08T10:34:28.000Z</time>
      </trkpt>
      <trkpt lat="42.45386" lon="2.94382">
        <ele>451</ele>
        <time>2022-11-08T10:34:55.000Z</time>
      </trkpt>
      <trkpt lat="42.45391" lon="2.94388">
        <ele>451</ele>
        <time>2022-11-08T10:35:18.000Z</time>
      </trkpt>
      <trkpt lat="42.45388" lon="2.94399">
        <ele>453</ele>
        <time>2022-11-08T10:35:34.000Z</time>
      </trkpt>
      <trkpt lat="42.45388" lon="2.94404">
        <ele>454</ele>
        <time>2022-11-08T10:35:49.000Z</time>
      </trkpt>
      <trkpt lat="42.45383" lon="2.94405">
        <ele>456</ele>
        <time>2022-11-08T10:36:07.000Z</time>
      </trkpt>
      <trkpt lat="42.45373" lon="2.94403">
        <ele>455</ele>
        <time>2022-11-08T10:36:26.000Z</time>
      </trkpt>
      <trkpt lat="42.45358" lon="2.94401">
        <ele>455</ele>
        <time>2022-11-08T10:36:42.000Z</time>
      </trkpt>
      <trkpt lat="42.4534" lon="2.94405">
        <ele>454</ele>
        <time>2022-11-08T10:37:04.000Z</time>
      </trkpt>
      <trkpt lat="42.45335" lon="2.94407">
        <ele>453</ele>
        <time>2022-11-08T10:37:09.000Z</time>
      </trkpt>
      <trkpt lat="42.45321" lon="2.94393">
        <ele>453</ele>
        <time>2022-11-08T10:37:12.000Z</time>
      </trkpt>
      <trkpt lat="42.45308" lon="2.94392">
        <ele>452</ele>
        <time>2022-11-08T10:37:27.000Z</time>
      </trkpt>
      <trkpt lat="42.45297" lon="2.94393">
        <ele>452</ele>
        <time>2022-11-08T10:37:39.000Z</time>
      </trkpt>
      <trkpt lat="42.45278" lon="2.94401">
        <ele>450</ele>
        <time>2022-11-08T10:37:58.000Z</time>
      </trkpt>
      <trkpt lat="42.45272" lon="2.94407">
        <ele>450</ele>
        <time>2022-11-08T10:38:08.000Z</time>
      </trkpt>
      <trkpt lat="42.45258" lon="2.94417">
        <ele>449</ele>
        <time>2022-11-08T10:38:23.000Z</time>
      </trkpt>
      <trkpt lat="42.45247" lon="2.94423">
        <ele>448</ele>
        <time>2022-11-08T10:38:36.000Z</time>
      </trkpt>
      <trkpt lat="42.45223" lon="2.94422">
        <ele>447</ele>
        <time>2022-11-08T10:38:52.000Z</time>
      </trkpt>
      <trkpt lat="42.4521" lon="2.94429">
        <ele>447</ele>
        <time>2022-11-08T10:39:07.000Z</time>
      </trkpt>
      <trkpt lat="42.45206" lon="2.94447">
        <ele>446</ele>
        <time>2022-11-08T10:39:23.000Z</time>
      </trkpt>
      <trkpt lat="42.45206" lon="2.94448">
        <ele>446</ele>
        <time>2022-11-08T10:39:24.000Z</time>
      </trkpt>
      <trkpt lat="42.45206" lon="2.94467">
        <ele>445</ele>
        <time>2022-11-08T10:39:40.000Z</time>
      </trkpt>
      <trkpt lat="42.45212" lon="2.94482">
        <ele>445</ele>
        <time>2022-11-08T10:39:51.000Z</time>
      </trkpt>
      <trkpt lat="42.45219" lon="2.94493">
        <ele>444</ele>
        <time>2022-11-08T10:40:01.000Z</time>
      </trkpt>
      <trkpt lat="42.45231" lon="2.94509">
        <ele>443</ele>
        <time>2022-11-08T10:40:17.000Z</time>
      </trkpt>
      <trkpt lat="42.45238" lon="2.94511">
        <ele>443</ele>
        <time>2022-11-08T10:40:22.000Z</time>
      </trkpt>
      <trkpt lat="42.4524" lon="2.94512">
        <ele>442</ele>
        <time>2022-11-08T10:40:24.000Z</time>
      </trkpt>
      <trkpt lat="42.45248" lon="2.94521">
        <ele>441</ele>
        <time>2022-11-08T10:40:35.000Z</time>
      </trkpt>
      <trkpt lat="42.45255" lon="2.94536">
        <ele>441</ele>
        <time>2022-11-08T10:40:50.000Z</time>
      </trkpt>
      <trkpt lat="42.45257" lon="2.94542">
        <ele>442</ele>
        <time>2022-11-08T10:41:18.000Z</time>
      </trkpt>
      <trkpt lat="42.4525" lon="2.9455">
        <ele>441</ele>
        <time>2022-11-08T10:41:47.000Z</time>
      </trkpt>
      <trkpt lat="42.45253" lon="2.94551">
        <ele>441</ele>
        <time>2022-11-08T10:42:11.000Z</time>
      </trkpt>
      <trkpt lat="42.45255" lon="2.94553">
        <ele>441</ele>
        <time>2022-11-08T10:42:26.000Z</time>
      </trkpt>
      <trkpt lat="42.45255" lon="2.94554">
        <ele>441</ele>
        <time>2022-11-08T10:42:29.000Z</time>
      </trkpt>
      <trkpt lat="42.45251" lon="2.94552">
        <ele>441</ele>
        <time>2022-11-08T10:42:49.000Z</time>
      </trkpt>
      <trkpt lat="42.45241" lon="2.94547">
        <ele>442</ele>
        <time>2022-11-08T10:43:07.000Z</time>
      </trkpt>
      <trkpt lat="42.45225" lon="2.94547">
        <ele>444</ele>
        <time>2022-11-08T10:43:24.000Z</time>
      </trkpt>
      <trkpt lat="42.4522" lon="2.94544">
        <ele>444</ele>
        <time>2022-11-08T10:43:29.000Z</time>
      </trkpt>
      <trkpt lat="42.45208" lon="2.94537">
        <ele>446</ele>
        <time>2022-11-08T10:43:44.000Z</time>
      </trkpt>
      <trkpt lat="42.45195" lon="2.94522">
        <ele>447</ele>
        <time>2022-11-08T10:44:04.000Z</time>
      </trkpt>
      <trkpt lat="42.4518" lon="2.94509">
        <ele>448</ele>
        <time>2022-11-08T10:44:24.000Z</time>
      </trkpt>
      <trkpt lat="42.45161" lon="2.94499">
        <ele>450</ele>
        <time>2022-11-08T10:44:47.000Z</time>
      </trkpt>
      <trkpt lat="42.45142" lon="2.94493">
        <ele>452</ele>
        <time>2022-11-08T10:45:08.000Z</time>
      </trkpt>
      <trkpt lat="42.45136" lon="2.94492">
        <ele>453</ele>
        <time>2022-11-08T10:45:15.000Z</time>
      </trkpt>
      <trkpt lat="42.45132" lon="2.94491">
        <ele>453</ele>
        <time>2022-11-08T10:45:18.000Z</time>
      </trkpt>
      <trkpt lat="42.45116" lon="2.94488">
        <ele>455</ele>
        <time>2022-11-08T10:45:35.000Z</time>
      </trkpt>
      <trkpt lat="42.45103" lon="2.94484">
        <ele>456</ele>
        <time>2022-11-08T10:45:56.000Z</time>
      </trkpt>
      <trkpt lat="42.45084" lon="2.9448">
        <ele>458</ele>
        <time>2022-11-08T10:46:15.000Z</time>
      </trkpt>
      <trkpt lat="42.4508" lon="2.94479">
        <ele>458</ele>
        <time>2022-11-08T10:46:19.000Z</time>
      </trkpt>
      <trkpt lat="42.45074" lon="2.94479">
        <ele>459</ele>
        <time>2022-11-08T10:46:25.000Z</time>
      </trkpt>
      <trkpt lat="42.45068" lon="2.94478">
        <ele>460</ele>
        <time>2022-11-08T10:46:31.000Z</time>
      </trkpt>
      <trkpt lat="42.45055" lon="2.94483">
        <ele>461</ele>
        <time>2022-11-08T10:46:45.000Z</time>
      </trkpt>
      <trkpt lat="42.45039" lon="2.94493">
        <ele>464</ele>
        <time>2022-11-08T10:47:03.000Z</time>
      </trkpt>
      <trkpt lat="42.45026" lon="2.94495">
        <ele>465</ele>
        <time>2022-11-08T10:47:15.000Z</time>
      </trkpt>
      <trkpt lat="42.45014" lon="2.94496">
        <ele>466</ele>
        <time>2022-11-08T10:47:28.000Z</time>
      </trkpt>
      <trkpt lat="42.44995" lon="2.94507">
        <ele>469</ele>
        <time>2022-11-08T10:47:49.000Z</time>
      </trkpt>
      <trkpt lat="42.44983" lon="2.94516">
        <ele>471</ele>
        <time>2022-11-08T10:48:06.000Z</time>
      </trkpt>
      <trkpt lat="42.44961" lon="2.94525">
        <ele>471</ele>
        <time>2022-11-08T10:48:25.000Z</time>
      </trkpt>
      <trkpt lat="42.44959" lon="2.94525">
        <ele>472</ele>
        <time>2022-11-08T10:48:49.000Z</time>
      </trkpt>
      <trkpt lat="42.44938" lon="2.9453">
        <ele>472</ele>
        <time>2022-11-08T10:49:10.000Z</time>
      </trkpt>
      <trkpt lat="42.44936" lon="2.94536">
        <ele>472</ele>
        <time>2022-11-08T10:49:30.000Z</time>
      </trkpt>
      <trkpt lat="42.44937" lon="2.94533">
        <ele>472</ele>
        <time>2022-11-08T10:50:04.000Z</time>
      </trkpt>
      <trkpt lat="42.44938" lon="2.94536">
        <ele>472</ele>
        <time>2022-11-08T10:50:31.000Z</time>
      </trkpt>
      <trkpt lat="42.44942" lon="2.94533">
        <ele>472</ele>
        <time>2022-11-08T10:50:38.000Z</time>
      </trkpt>
      <trkpt lat="42.44932" lon="2.94517">
        <ele>472</ele>
        <time>2022-11-08T10:50:57.000Z</time>
      </trkpt>
      <trkpt lat="42.44918" lon="2.94505">
        <ele>473</ele>
        <time>2022-11-08T10:51:17.000Z</time>
      </trkpt>
      <trkpt lat="42.44902" lon="2.94504">
        <ele>475</ele>
        <time>2022-11-08T10:51:36.000Z</time>
      </trkpt>
      <trkpt lat="42.44884" lon="2.94498">
        <ele>476</ele>
        <time>2022-11-08T10:51:57.000Z</time>
      </trkpt>
      <trkpt lat="42.44867" lon="2.94486">
        <ele>479</ele>
        <time>2022-11-08T10:52:16.000Z</time>
      </trkpt>
      <trkpt lat="42.44852" lon="2.94481">
        <ele>479</ele>
        <time>2022-11-08T10:52:28.000Z</time>
      </trkpt>
      <trkpt lat="42.4483" lon="2.9448">
        <ele>478</ele>
        <time>2022-11-08T10:52:48.000Z</time>
      </trkpt>
      <trkpt lat="42.4481" lon="2.94485">
        <ele>478</ele>
        <time>2022-11-08T10:53:09.000Z</time>
      </trkpt>
      <trkpt lat="42.44793" lon="2.94484">
        <ele>481</ele>
        <time>2022-11-08T10:53:31.000Z</time>
      </trkpt>
      <trkpt lat="42.4478" lon="2.94487">
        <ele>484</ele>
        <time>2022-11-08T10:53:53.000Z</time>
      </trkpt>
      <trkpt lat="42.44767" lon="2.94493">
        <ele>486</ele>
        <time>2022-11-08T10:54:11.000Z</time>
      </trkpt>
      <trkpt lat="42.44747" lon="2.94493">
        <ele>489</ele>
        <time>2022-11-08T10:54:33.000Z</time>
      </trkpt>
      <trkpt lat="42.44731" lon="2.94494">
        <ele>491</ele>
        <time>2022-11-08T10:54:51.000Z</time>
      </trkpt>
      <trkpt lat="42.4471" lon="2.94494">
        <ele>493</ele>
        <time>2022-11-08T10:55:12.000Z</time>
      </trkpt>
      <trkpt lat="42.44689" lon="2.94502">
        <ele>494</ele>
        <time>2022-11-08T10:55:32.000Z</time>
      </trkpt>
      <trkpt lat="42.44672" lon="2.94499">
        <ele>494</ele>
        <time>2022-11-08T10:55:52.000Z</time>
      </trkpt>
      <trkpt lat="42.44666" lon="2.94499">
        <ele>494</ele>
        <time>2022-11-08T10:55:57.000Z</time>
      </trkpt>
      <trkpt lat="42.44654" lon="2.94497">
        <ele>494</ele>
        <time>2022-11-08T10:56:08.000Z</time>
      </trkpt>
      <trkpt lat="42.4465" lon="2.94498">
        <ele>494</ele>
        <time>2022-11-08T10:56:11.000Z</time>
      </trkpt>
      <trkpt lat="42.44636" lon="2.94496">
        <ele>494</ele>
        <time>2022-11-08T10:56:24.000Z</time>
      </trkpt>
      <trkpt lat="42.44623" lon="2.94487">
        <ele>495</ele>
        <time>2022-11-08T10:56:46.000Z</time>
      </trkpt>
      <trkpt lat="42.44614" lon="2.94482">
        <ele>493</ele>
        <time>2022-11-08T10:57:07.000Z</time>
      </trkpt>
      <trkpt lat="42.44615" lon="2.94488">
        <ele>493</ele>
        <time>2022-11-08T10:57:37.000Z</time>
      </trkpt>
      <trkpt lat="42.44614" lon="2.94487">
        <ele>493</ele>
        <time>2022-11-08T10:57:52.000Z</time>
      </trkpt>
      <trkpt lat="42.44612" lon="2.94487">
        <ele>492</ele>
        <time>2022-11-08T10:58:21.000Z</time>
      </trkpt>
      <trkpt lat="42.44612" lon="2.9449">
        <ele>492</ele>
        <time>2022-11-08T10:58:58.000Z</time>
      </trkpt>
      <trkpt lat="42.44613" lon="2.94484">
        <ele>492</ele>
        <time>2022-11-08T10:59:28.000Z</time>
      </trkpt>
      <trkpt lat="42.44611" lon="2.94486">
        <ele>492</ele>
        <time>2022-11-08T10:59:58.000Z</time>
      </trkpt>
      <trkpt lat="42.44611" lon="2.94487">
        <ele>492</ele>
        <time>2022-11-08T11:00:10.000Z</time>
      </trkpt>
      <trkpt lat="42.4461" lon="2.94489">
        <ele>492</ele>
        <time>2022-11-08T11:00:37.000Z</time>
      </trkpt>
      <trkpt lat="42.44605" lon="2.94489">
        <ele>493</ele>
        <time>2022-11-08T11:01:10.000Z</time>
      </trkpt>
      <trkpt lat="42.44612" lon="2.94487">
        <ele>493</ele>
        <time>2022-11-08T11:01:41.000Z</time>
      </trkpt>
      <trkpt lat="42.44614" lon="2.94485">
        <ele>493</ele>
        <time>2022-11-08T11:02:14.000Z</time>
      </trkpt>
      <trkpt lat="42.44619" lon="2.94483">
        <ele>493</ele>
        <time>2022-11-08T11:02:25.000Z</time>
      </trkpt>
      <trkpt lat="42.44616" lon="2.94489">
        <ele>493</ele>
        <time>2022-11-08T11:03:00.000Z</time>
      </trkpt>
      <trkpt lat="42.44607" lon="2.94489">
        <ele>493</ele>
        <time>2022-11-08T11:03:37.000Z</time>
      </trkpt>
      <trkpt lat="42.44607" lon="2.94491">
        <ele>493</ele>
        <time>2022-11-08T11:04:08.000Z</time>
      </trkpt>
      <trkpt lat="42.44615" lon="2.94488">
        <ele>493</ele>
        <time>2022-11-08T11:04:29.000Z</time>
      </trkpt>
      <trkpt lat="42.44615" lon="2.94488">
        <ele>493</ele>
        <time>2022-11-08T11:05:00.000Z</time>
      </trkpt>
      <trkpt lat="42.44609" lon="2.94488">
        <ele>494</ele>
        <time>2022-11-08T11:05:29.000Z</time>
      </trkpt>
      <trkpt lat="42.44611" lon="2.94488">
        <ele>494</ele>
        <time>2022-11-08T11:06:01.000Z</time>
      </trkpt>
      <trkpt lat="42.44614" lon="2.94488">
        <ele>494</ele>
        <time>2022-11-08T11:06:35.000Z</time>
      </trkpt>
      <trkpt lat="42.44618" lon="2.94486">
        <ele>494</ele>
        <time>2022-11-08T11:07:05.000Z</time>
      </trkpt>
      <trkpt lat="42.44613" lon="2.9449">
        <ele>494</ele>
        <time>2022-11-08T11:07:36.000Z</time>
      </trkpt>
      <trkpt lat="42.44611" lon="2.9449">
        <ele>494</ele>
        <time>2022-11-08T11:08:03.000Z</time>
      </trkpt>
      <trkpt lat="42.44616" lon="2.94487">
        <ele>494</ele>
        <time>2022-11-08T11:08:39.000Z</time>
      </trkpt>
      <trkpt lat="42.44616" lon="2.94487">
        <ele>495</ele>
        <time>2022-11-08T11:09:14.000Z</time>
      </trkpt>
      <trkpt lat="42.44616" lon="2.94487">
        <ele>494</ele>
        <time>2022-11-08T11:09:47.000Z</time>
      </trkpt>
      <trkpt lat="42.44615" lon="2.94487">
        <ele>495</ele>
        <time>2022-11-08T11:10:17.000Z</time>
      </trkpt>
      <trkpt lat="42.44617" lon="2.94485">
        <ele>495</ele>
        <time>2022-11-08T11:10:49.000Z</time>
      </trkpt>
      <trkpt lat="42.44614" lon="2.94488">
        <ele>495</ele>
        <time>2022-11-08T11:11:18.000Z</time>
      </trkpt>
      <trkpt lat="42.44615" lon="2.94488">
        <ele>495</ele>
        <time>2022-11-08T11:11:51.000Z</time>
      </trkpt>
      <trkpt lat="42.44615" lon="2.94487">
        <ele>495</ele>
        <time>2022-11-08T11:12:25.000Z</time>
      </trkpt>
      <trkpt lat="42.44613" lon="2.94485">
        <ele>495</ele>
        <time>2022-11-08T11:12:49.000Z</time>
      </trkpt>
      <trkpt lat="42.44611" lon="2.94489">
        <ele>495</ele>
        <time>2022-11-08T11:13:21.000Z</time>
      </trkpt>
      <trkpt lat="42.44615" lon="2.94487">
        <ele>495</ele>
        <time>2022-11-08T11:13:53.000Z</time>
      </trkpt>
      <trkpt lat="42.44616" lon="2.94486">
        <ele>495</ele>
        <time>2022-11-08T11:14:26.000Z</time>
      </trkpt>
      <trkpt lat="42.44614" lon="2.94485">
        <ele>495</ele>
        <time>2022-11-08T11:15:23.000Z</time>
      </trkpt>
      <trkpt lat="42.44614" lon="2.94483">
        <ele>496</ele>
        <time>2022-11-08T11:15:50.000Z</time>
      </trkpt>
      <trkpt lat="42.44615" lon="2.94483">
        <ele>495</ele>
        <time>2022-11-08T11:16:18.000Z</time>
      </trkpt>
      <trkpt lat="42.44613" lon="2.94483">
        <ele>496</ele>
        <time>2022-11-08T11:16:48.000Z</time>
      </trkpt>
      <trkpt lat="42.44612" lon="2.94484">
        <ele>496</ele>
        <time>2022-11-08T11:17:19.000Z</time>
      </trkpt>
      <trkpt lat="42.44615" lon="2.94484">
        <ele>496</ele>
        <time>2022-11-08T11:17:48.000Z</time>
      </trkpt>
      <trkpt lat="42.44614" lon="2.94488">
        <ele>495</ele>
        <time>2022-11-08T11:18:16.000Z</time>
      </trkpt>
      <trkpt lat="42.44617" lon="2.94484">
        <ele>495</ele>
        <time>2022-11-08T11:18:47.000Z</time>
      </trkpt>
      <trkpt lat="42.44618" lon="2.94483">
        <ele>495</ele>
        <time>2022-11-08T11:19:10.000Z</time>
      </trkpt>
      <trkpt lat="42.44618" lon="2.94481">
        <ele>495</ele>
        <time>2022-11-08T11:19:45.000Z</time>
      </trkpt>
      <trkpt lat="42.44619" lon="2.94483">
        <ele>495</ele>
        <time>2022-11-08T11:20:16.000Z</time>
      </trkpt>
      <trkpt lat="42.44616" lon="2.94484">
        <ele>495</ele>
        <time>2022-11-08T11:20:48.000Z</time>
      </trkpt>
      <trkpt lat="42.44616" lon="2.94485">
        <ele>495</ele>
        <time>2022-11-08T11:21:12.000Z</time>
      </trkpt>
      <trkpt lat="42.44615" lon="2.94485">
        <ele>495</ele>
        <time>2022-11-08T11:21:39.000Z</time>
      </trkpt>
      <trkpt lat="42.44618" lon="2.94484">
        <ele>495</ele>
        <time>2022-11-08T11:22:15.000Z</time>
      </trkpt>
      <trkpt lat="42.44617" lon="2.94483">
        <ele>495</ele>
        <time>2022-11-08T11:22:42.000Z</time>
      </trkpt>
      <trkpt lat="42.44617" lon="2.94485">
        <ele>495</ele>
        <time>2022-11-08T11:23:14.000Z</time>
      </trkpt>
      <trkpt lat="42.4462" lon="2.94484">
        <ele>495</ele>
        <time>2022-11-08T11:23:47.000Z</time>
      </trkpt>
      <trkpt lat="42.44621" lon="2.94485">
        <ele>495</ele>
        <time>2022-11-08T11:24:16.000Z</time>
      </trkpt>
      <trkpt lat="42.44616" lon="2.94486">
        <ele>495</ele>
        <time>2022-11-08T11:24:49.000Z</time>
      </trkpt>
      <trkpt lat="42.44617" lon="2.94486">
        <ele>495</ele>
        <time>2022-11-08T11:25:21.000Z</time>
      </trkpt>
      <trkpt lat="42.4462" lon="2.94482">
        <ele>494</ele>
        <time>2022-11-08T11:25:56.000Z</time>
      </trkpt>
      <trkpt lat="42.44618" lon="2.94481">
        <ele>494</ele>
        <time>2022-11-08T11:26:25.000Z</time>
      </trkpt>
      <trkpt lat="42.44622" lon="2.94481">
        <ele>493</ele>
        <time>2022-11-08T11:26:53.000Z</time>
      </trkpt>
      <trkpt lat="42.44617" lon="2.94484">
        <ele>493</ele>
        <time>2022-11-08T11:27:23.000Z</time>
      </trkpt>
      <trkpt lat="42.44618" lon="2.94484">
        <ele>493</ele>
        <time>2022-11-08T11:27:53.000Z</time>
      </trkpt>
      <trkpt lat="42.44616" lon="2.94486">
        <ele>493</ele>
        <time>2022-11-08T11:28:25.000Z</time>
      </trkpt>
      <trkpt lat="42.44618" lon="2.94483">
        <ele>493</ele>
        <time>2022-11-08T11:28:56.000Z</time>
      </trkpt>
      <trkpt lat="42.44622" lon="2.94479">
        <ele>493</ele>
        <time>2022-11-08T11:29:27.000Z</time>
      </trkpt>
      <trkpt lat="42.44616" lon="2.94481">
        <ele>494</ele>
        <time>2022-11-08T11:29:52.000Z</time>
      </trkpt>
      <trkpt lat="42.44613" lon="2.94485">
        <ele>494</ele>
        <time>2022-11-08T11:30:23.000Z</time>
      </trkpt>
      <trkpt lat="42.4462" lon="2.94482">
        <ele>494</ele>
        <time>2022-11-08T11:31:00.000Z</time>
      </trkpt>
      <trkpt lat="42.44621" lon="2.94482">
        <ele>494</ele>
        <time>2022-11-08T11:31:30.000Z</time>
      </trkpt>
      <trkpt lat="42.44618" lon="2.94481">
        <ele>494</ele>
        <time>2022-11-08T11:32:08.000Z</time>
      </trkpt>
      <trkpt lat="42.44616" lon="2.94483">
        <ele>494</ele>
        <time>2022-11-08T11:33:03.000Z</time>
      </trkpt>
      <trkpt lat="42.44619" lon="2.94482">
        <ele>494</ele>
        <time>2022-11-08T11:33:40.000Z</time>
      </trkpt>
      <trkpt lat="42.44618" lon="2.94483">
        <ele>494</ele>
        <time>2022-11-08T11:35:03.000Z</time>
      </trkpt>
      <trkpt lat="42.44616" lon="2.94481">
        <ele>494</ele>
        <time>2022-11-08T11:35:42.000Z</time>
      </trkpt>
      <trkpt lat="42.44613" lon="2.94484">
        <ele>493</ele>
        <time>2022-11-08T11:37:18.000Z</time>
      </trkpt>
      <trkpt lat="42.44613" lon="2.94485">
        <ele>493</ele>
        <time>2022-11-08T11:39:42.000Z</time>
      </trkpt>
      <trkpt lat="42.44613" lon="2.94485">
        <ele>492</ele>
        <time>2022-11-08T11:43:01.000Z</time>
      </trkpt>
      <trkpt lat="42.44613" lon="2.94484">
        <ele>491</ele>
        <time>2022-11-08T11:45:05.000Z</time>
      </trkpt>
      <trkpt lat="42.44613" lon="2.94486">
        <ele>491</ele>
        <time>2022-11-08T11:46:07.000Z</time>
      </trkpt>
      <trkpt lat="42.44613" lon="2.94487">
        <ele>491</ele>
        <time>2022-11-08T11:46:45.000Z</time>
      </trkpt>
      <trkpt lat="42.4461" lon="2.94488">
        <ele>491</ele>
        <time>2022-11-08T11:47:17.000Z</time>
      </trkpt>
      <trkpt lat="42.44612" lon="2.94487">
        <ele>491</ele>
        <time>2022-11-08T11:48:01.000Z</time>
      </trkpt>
      <trkpt lat="42.44613" lon="2.94486">
        <ele>491</ele>
        <time>2022-11-08T11:48:52.000Z</time>
      </trkpt>
      <trkpt lat="42.44612" lon="2.94485">
        <ele>490</ele>
        <time>2022-11-08T11:50:55.000Z</time>
      </trkpt>
      <trkpt lat="42.44614" lon="2.94483">
        <ele>491</ele>
        <time>2022-11-08T11:52:06.000Z</time>
      </trkpt>
      <trkpt lat="42.44616" lon="2.94488">
        <ele>491</ele>
        <time>2022-11-08T11:52:40.000Z</time>
      </trkpt>
      <trkpt lat="42.44615" lon="2.94486">
        <ele>491</ele>
        <time>2022-11-08T11:53:13.000Z</time>
      </trkpt>
      <trkpt lat="42.44618" lon="2.94485">
        <ele>491</ele>
        <time>2022-11-08T11:53:45.000Z</time>
      </trkpt>
      <trkpt lat="42.44615" lon="2.94486">
        <ele>491</ele>
        <time>2022-11-08T11:54:12.000Z</time>
      </trkpt>
      <trkpt lat="42.44615" lon="2.94486">
        <ele>490</ele>
        <time>2022-11-08T11:54:43.000Z</time>
      </trkpt>
      <trkpt lat="42.44616" lon="2.94485">
        <ele>490</ele>
        <time>2022-11-08T11:55:02.000Z</time>
      </trkpt>
      <trkpt lat="42.44616" lon="2.94482">
        <ele>490</ele>
        <time>2022-11-08T11:55:48.000Z</time>
      </trkpt>
      <trkpt lat="42.44614" lon="2.94483">
        <ele>490</ele>
        <time>2022-11-08T11:56:15.000Z</time>
      </trkpt>
      <trkpt lat="42.44613" lon="2.94485">
        <ele>491</ele>
        <time>2022-11-08T11:56:43.000Z</time>
      </trkpt>
      <trkpt lat="42.4461" lon="2.9449">
        <ele>488</ele>
        <time>2022-11-08T11:57:01.000Z</time>
      </trkpt>
      <trkpt lat="42.44607" lon="2.94489">
        <ele>485</ele>
        <time>2022-11-08T11:57:22.000Z</time>
      </trkpt>
      <trkpt lat="42.44599" lon="2.94489">
        <ele>482</ele>
        <time>2022-11-08T11:57:42.000Z</time>
      </trkpt>
      <trkpt lat="42.4459" lon="2.94491">
        <ele>479</ele>
        <time>2022-11-08T11:57:56.000Z</time>
      </trkpt>
      <trkpt lat="42.44581" lon="2.94482">
        <ele>476</ele>
        <time>2022-11-08T11:58:10.000Z</time>
      </trkpt>
      <trkpt lat="42.44578" lon="2.94473">
        <ele>474</ele>
        <time>2022-11-08T11:58:19.000Z</time>
      </trkpt>
      <trkpt lat="42.44575" lon="2.94468">
        <ele>473</ele>
        <time>2022-11-08T11:58:23.000Z</time>
      </trkpt>
      <trkpt lat="42.44563" lon="2.9446">
        <ele>470</ele>
        <time>2022-11-08T11:58:43.000Z</time>
      </trkpt>
      <trkpt lat="42.44565" lon="2.94468">
        <ele>469</ele>
        <time>2022-11-08T11:59:00.000Z</time>
      </trkpt>
      <trkpt lat="42.44564" lon="2.9447">
        <ele>468</ele>
        <time>2022-11-08T11:59:27.000Z</time>
      </trkpt>
      <trkpt lat="42.44556" lon="2.94459">
        <ele>466</ele>
        <time>2022-11-08T11:59:47.000Z</time>
      </trkpt>
      <trkpt lat="42.44543" lon="2.94443">
        <ele>464</ele>
        <time>2022-11-08T12:00:09.000Z</time>
      </trkpt>
      <trkpt lat="42.44533" lon="2.94441">
        <ele>461</ele>
        <time>2022-11-08T12:00:23.000Z</time>
      </trkpt>
      <trkpt lat="42.44527" lon="2.94435">
        <ele>458</ele>
        <time>2022-11-08T12:00:37.000Z</time>
      </trkpt>
      <trkpt lat="42.44517" lon="2.94439">
        <ele>455</ele>
        <time>2022-11-08T12:00:55.000Z</time>
      </trkpt>
      <trkpt lat="42.44512" lon="2.94438">
        <ele>454</ele>
        <time>2022-11-08T12:01:00.000Z</time>
      </trkpt>
      <trkpt lat="42.44507" lon="2.94436">
        <ele>453</ele>
        <time>2022-11-08T12:01:05.000Z</time>
      </trkpt>
      <trkpt lat="42.44502" lon="2.94436">
        <ele>453</ele>
        <time>2022-11-08T12:01:08.000Z</time>
      </trkpt>
      <trkpt lat="42.44491" lon="2.94432">
        <ele>452</ele>
        <time>2022-11-08T12:01:19.000Z</time>
      </trkpt>
      <trkpt lat="42.4449" lon="2.94429">
        <ele>452</ele>
        <time>2022-11-08T12:01:37.000Z</time>
      </trkpt>
      <trkpt lat="42.4449" lon="2.9443">
        <ele>452</ele>
        <time>2022-11-08T12:02:09.000Z</time>
      </trkpt>
      <trkpt lat="42.44482" lon="2.94421">
        <ele>453</ele>
        <time>2022-11-08T12:02:25.000Z</time>
      </trkpt>
      <trkpt lat="42.44476" lon="2.94411">
        <ele>453</ele>
        <time>2022-11-08T12:02:36.000Z</time>
      </trkpt>
      <trkpt lat="42.44475" lon="2.94399">
        <ele>453</ele>
        <time>2022-11-08T12:02:49.000Z</time>
      </trkpt>
      <trkpt lat="42.44475" lon="2.94392">
        <ele>453</ele>
        <time>2022-11-08T12:02:54.000Z</time>
      </trkpt>
      <trkpt lat="42.44486" lon="2.94374">
        <ele>452</ele>
        <time>2022-11-08T12:03:11.000Z</time>
      </trkpt>
      <trkpt lat="42.44503" lon="2.94355">
        <ele>449</ele>
        <time>2022-11-08T12:03:30.000Z</time>
      </trkpt>
      <trkpt lat="42.44514" lon="2.94347">
        <ele>448</ele>
        <time>2022-11-08T12:03:43.000Z</time>
      </trkpt>
      <trkpt lat="42.44525" lon="2.94334">
        <ele>447</ele>
        <time>2022-11-08T12:04:01.000Z</time>
      </trkpt>
      <trkpt lat="42.44526" lon="2.94332">
        <ele>446</ele>
        <time>2022-11-08T12:04:03.000Z</time>
      </trkpt>
      <trkpt lat="42.44533" lon="2.9432">
        <ele>445</ele>
        <time>2022-11-08T12:04:17.000Z</time>
      </trkpt>
      <trkpt lat="42.44537" lon="2.94315">
        <ele>444</ele>
        <time>2022-11-08T12:04:22.000Z</time>
      </trkpt>
      <trkpt lat="42.44547" lon="2.94301">
        <ele>443</ele>
        <time>2022-11-08T12:04:37.000Z</time>
      </trkpt>
      <trkpt lat="42.44553" lon="2.94296">
        <ele>442</ele>
        <time>2022-11-08T12:04:55.000Z</time>
      </trkpt>
      <trkpt lat="42.44559" lon="2.94275">
        <ele>440</ele>
        <time>2022-11-08T12:05:14.000Z</time>
      </trkpt>
      <trkpt lat="42.44563" lon="2.94245">
        <ele>438</ele>
        <time>2022-11-08T12:05:36.000Z</time>
      </trkpt>
      <trkpt lat="42.44567" lon="2.94224">
        <ele>436</ele>
        <time>2022-11-08T12:05:53.000Z</time>
      </trkpt>
      <trkpt lat="42.44571" lon="2.94213">
        <ele>434</ele>
        <time>2022-11-08T12:06:02.000Z</time>
      </trkpt>
      <trkpt lat="42.4458" lon="2.94186">
        <ele>432</ele>
        <time>2022-11-08T12:06:21.000Z</time>
      </trkpt>
      <trkpt lat="42.44583" lon="2.94184">
        <ele>432</ele>
        <time>2022-11-08T12:06:24.000Z</time>
      </trkpt>
      <trkpt lat="42.44596" lon="2.9418">
        <ele>430</ele>
        <time>2022-11-08T12:06:37.000Z</time>
      </trkpt>
      <trkpt lat="42.44597" lon="2.9418">
        <ele>429</ele>
        <time>2022-11-08T12:06:38.000Z</time>
      </trkpt>
      <trkpt lat="42.44613" lon="2.94167">
        <ele>427</ele>
        <time>2022-11-08T12:06:54.000Z</time>
      </trkpt>
      <trkpt lat="42.44629" lon="2.94153">
        <ele>425</ele>
        <time>2022-11-08T12:07:12.000Z</time>
      </trkpt>
      <trkpt lat="42.44646" lon="2.94138">
        <ele>423</ele>
        <time>2022-11-08T12:07:33.000Z</time>
      </trkpt>
      <trkpt lat="42.44663" lon="2.9413">
        <ele>420</ele>
        <time>2022-11-08T12:07:53.000Z</time>
      </trkpt>
      <trkpt lat="42.44683" lon="2.9413">
        <ele>417</ele>
        <time>2022-11-08T12:08:14.000Z</time>
      </trkpt>
      <trkpt lat="42.44698" lon="2.94128">
        <ele>415</ele>
        <time>2022-11-08T12:08:29.000Z</time>
      </trkpt>
      <trkpt lat="42.44706" lon="2.94131">
        <ele>414</ele>
        <time>2022-11-08T12:08:36.000Z</time>
      </trkpt>
      <trkpt lat="42.44723" lon="2.9414">
        <ele>412</ele>
        <time>2022-11-08T12:08:53.000Z</time>
      </trkpt>
      <trkpt lat="42.44749" lon="2.94148">
        <ele>409</ele>
        <time>2022-11-08T12:09:18.000Z</time>
      </trkpt>
      <trkpt lat="42.44769" lon="2.94151">
        <ele>407</ele>
        <time>2022-11-08T12:09:36.000Z</time>
      </trkpt>
      <trkpt lat="42.44771" lon="2.94152">
        <ele>407</ele>
        <time>2022-11-08T12:09:37.000Z</time>
      </trkpt>
      <trkpt lat="42.44788" lon="2.94148">
        <ele>406</ele>
        <time>2022-11-08T12:09:52.000Z</time>
      </trkpt>
      <trkpt lat="42.44799" lon="2.94142">
        <ele>405</ele>
        <time>2022-11-08T12:10:01.000Z</time>
      </trkpt>
      <trkpt lat="42.44813" lon="2.94126">
        <ele>406</ele>
        <time>2022-11-08T12:10:17.000Z</time>
      </trkpt>
      <trkpt lat="42.44814" lon="2.94121">
        <ele>406</ele>
        <time>2022-11-08T12:10:21.000Z</time>
      </trkpt>
      <trkpt lat="42.44803" lon="2.94098">
        <ele>406</ele>
        <time>2022-11-08T12:10:42.000Z</time>
      </trkpt>
      <trkpt lat="42.44798" lon="2.94096">
        <ele>405</ele>
        <time>2022-11-08T12:11:04.000Z</time>
      </trkpt>
      <trkpt lat="42.44799" lon="2.94097">
        <ele>405</ele>
        <time>2022-11-08T12:11:32.000Z</time>
      </trkpt>
      <trkpt lat="42.44791" lon="2.94088">
        <ele>405</ele>
        <time>2022-11-08T12:11:51.000Z</time>
      </trkpt>
      <trkpt lat="42.4477" lon="2.94058">
        <ele>404</ele>
        <time>2022-11-08T12:12:13.000Z</time>
      </trkpt>
      <trkpt lat="42.44765" lon="2.94048">
        <ele>404</ele>
        <time>2022-11-08T12:12:21.000Z</time>
      </trkpt>
      <trkpt lat="42.44744" lon="2.94021">
        <ele>404</ele>
        <time>2022-11-08T12:12:47.000Z</time>
      </trkpt>
      <trkpt lat="42.44719" lon="2.9401">
        <ele>403</ele>
        <time>2022-11-08T12:13:10.000Z</time>
      </trkpt>
      <trkpt lat="42.44716" lon="2.9401">
        <ele>403</ele>
        <time>2022-11-08T12:13:12.000Z</time>
      </trkpt>
      <trkpt lat="42.44706" lon="2.94002">
        <ele>402</ele>
        <time>2022-11-08T12:13:23.000Z</time>
      </trkpt>
      <trkpt lat="42.44704" lon="2.93999">
        <ele>402</ele>
        <time>2022-11-08T12:13:25.000Z</time>
      </trkpt>
      <trkpt lat="42.4469" lon="2.93991">
        <ele>402</ele>
        <time>2022-11-08T12:13:38.000Z</time>
      </trkpt>
      <trkpt lat="42.44667" lon="2.9398">
        <ele>402</ele>
        <time>2022-11-08T12:14:00.000Z</time>
      </trkpt>
      <trkpt lat="42.44658" lon="2.93973">
        <ele>401</ele>
        <time>2022-11-08T12:14:24.000Z</time>
      </trkpt>
      <trkpt lat="42.44655" lon="2.93973">
        <ele>401</ele>
        <time>2022-11-08T12:14:33.000Z</time>
      </trkpt>
      <trkpt lat="42.44655" lon="2.93971">
        <ele>401</ele>
        <time>2022-11-08T12:15:04.000Z</time>
      </trkpt>
      <trkpt lat="42.44654" lon="2.93971">
        <ele>401</ele>
        <time>2022-11-08T12:15:16.000Z</time>
      </trkpt>
      <trkpt lat="42.44634" lon="2.93971">
        <ele>399</ele>
        <time>2022-11-08T12:15:37.000Z</time>
      </trkpt>
      <trkpt lat="42.44618" lon="2.93981">
        <ele>397</ele>
        <time>2022-11-08T12:16:00.000Z</time>
      </trkpt>
      <trkpt lat="42.44611" lon="2.9398">
        <ele>396</ele>
        <time>2022-11-08T12:16:26.000Z</time>
      </trkpt>
      <trkpt lat="42.44603" lon="2.93975">
        <ele>396</ele>
        <time>2022-11-08T12:16:43.000Z</time>
      </trkpt>
      <trkpt lat="42.44596" lon="2.93978">
        <ele>396</ele>
        <time>2022-11-08T12:16:52.000Z</time>
      </trkpt>
      <trkpt lat="42.44583" lon="2.93975">
        <ele>395</ele>
        <time>2022-11-08T12:17:07.000Z</time>
      </trkpt>
      <trkpt lat="42.44567" lon="2.93959">
        <ele>396</ele>
        <time>2022-11-08T12:17:29.000Z</time>
      </trkpt>
      <trkpt lat="42.4456" lon="2.93951">
        <ele>396</ele>
        <time>2022-11-08T12:17:52.000Z</time>
      </trkpt>
      <trkpt lat="42.44558" lon="2.93951">
        <ele>397</ele>
        <time>2022-11-08T12:18:19.000Z</time>
      </trkpt>
      <trkpt lat="42.44544" lon="2.9394">
        <ele>399</ele>
        <time>2022-11-08T12:18:40.000Z</time>
      </trkpt>
      <trkpt lat="42.44536" lon="2.93924">
        <ele>400</ele>
        <time>2022-11-08T12:18:59.000Z</time>
      </trkpt>
      <trkpt lat="42.44523" lon="2.93907">
        <ele>400</ele>
        <time>2022-11-08T12:19:19.000Z</time>
      </trkpt>
      <trkpt lat="42.44503" lon="2.93905">
        <ele>400</ele>
        <time>2022-11-08T12:19:39.000Z</time>
      </trkpt>
      <trkpt lat="42.44502" lon="2.93932">
        <ele>400</ele>
        <time>2022-11-08T12:20:00.000Z</time>
      </trkpt>
      <trkpt lat="42.445" lon="2.93949">
        <ele>397</ele>
        <time>2022-11-08T12:20:22.000Z</time>
      </trkpt>
      <trkpt lat="42.44501" lon="2.93947">
        <ele>396</ele>
        <time>2022-11-08T12:20:48.000Z</time>
      </trkpt>
      <trkpt lat="42.44499" lon="2.93954">
        <ele>396</ele>
        <time>2022-11-08T12:21:17.000Z</time>
      </trkpt>
      <trkpt lat="42.44497" lon="2.9396">
        <ele>395</ele>
        <time>2022-11-08T12:21:36.000Z</time>
      </trkpt>
      <trkpt lat="42.44492" lon="2.93979">
        <ele>394</ele>
        <time>2022-11-08T12:21:53.000Z</time>
      </trkpt>
      <trkpt lat="42.44474" lon="2.93998">
        <ele>391</ele>
        <time>2022-11-08T12:22:15.000Z</time>
      </trkpt>
      <trkpt lat="42.44467" lon="2.94006">
        <ele>390</ele>
        <time>2022-11-08T12:22:23.000Z</time>
      </trkpt>
      <trkpt lat="42.44464" lon="2.94011">
        <ele>390</ele>
        <time>2022-11-08T12:22:27.000Z</time>
      </trkpt>
      <trkpt lat="42.44447" lon="2.94026">
        <ele>389</ele>
        <time>2022-11-08T12:22:44.000Z</time>
      </trkpt>
      <trkpt lat="42.44432" lon="2.94034">
        <ele>388</ele>
        <time>2022-11-08T12:22:58.000Z</time>
      </trkpt>
      <trkpt lat="42.4442" lon="2.94037">
        <ele>388</ele>
        <time>2022-11-08T12:23:13.000Z</time>
      </trkpt>
      <trkpt lat="42.44408" lon="2.94037">
        <ele>388</ele>
        <time>2022-11-08T12:23:25.000Z</time>
      </trkpt>
      <trkpt lat="42.44396" lon="2.94043">
        <ele>387</ele>
        <time>2022-11-08T12:23:39.000Z</time>
      </trkpt>
      <trkpt lat="42.44379" lon="2.94048">
        <ele>384</ele>
        <time>2022-11-08T12:23:57.000Z</time>
      </trkpt>
      <trkpt lat="42.44363" lon="2.94045">
        <ele>380</ele>
        <time>2022-11-08T12:24:16.000Z</time>
      </trkpt>
      <trkpt lat="42.44346" lon="2.94028">
        <ele>378</ele>
        <time>2022-11-08T12:24:39.000Z</time>
      </trkpt>
      <trkpt lat="42.44336" lon="2.94005">
        <ele>378</ele>
        <time>2022-11-08T12:25:01.000Z</time>
      </trkpt>
      <trkpt lat="42.44332" lon="2.93976">
        <ele>379</ele>
        <time>2022-11-08T12:25:22.000Z</time>
      </trkpt>
      <trkpt lat="42.44329" lon="2.93954">
        <ele>381</ele>
        <time>2022-11-08T12:25:39.000Z</time>
      </trkpt>
      <trkpt lat="42.44327" lon="2.93928">
        <ele>382</ele>
        <time>2022-11-08T12:26:03.000Z</time>
      </trkpt>
      <trkpt lat="42.44315" lon="2.93901">
        <ele>382</ele>
        <time>2022-11-08T12:26:28.000Z</time>
      </trkpt>
      <trkpt lat="42.44311" lon="2.9388">
        <ele>383</ele>
        <time>2022-11-08T12:26:48.000Z</time>
      </trkpt>
      <trkpt lat="42.44307" lon="2.93863">
        <ele>380</ele>
        <time>2022-11-08T12:27:09.000Z</time>
      </trkpt>
      <trkpt lat="42.44307" lon="2.93863">
        <ele>380</ele>
        <time>2022-11-08T12:27:10.000Z</time>
      </trkpt>
      <trkpt lat="42.44286" lon="2.93839">
        <ele>377</ele>
        <time>2022-11-08T12:27:29.000Z</time>
      </trkpt>
      <trkpt lat="42.44272" lon="2.93832">
        <ele>375</ele>
        <time>2022-11-08T12:27:46.000Z</time>
      </trkpt>
      <trkpt lat="42.44269" lon="2.9383">
        <ele>374</ele>
        <time>2022-11-08T12:27:51.000Z</time>
      </trkpt>
      <trkpt lat="42.44256" lon="2.93808">
        <ele>373</ele>
        <time>2022-11-08T12:28:11.000Z</time>
      </trkpt>
      <trkpt lat="42.4425" lon="2.9379">
        <ele>374</ele>
        <time>2022-11-08T12:28:27.000Z</time>
      </trkpt>
      <trkpt lat="42.44241" lon="2.93761">
        <ele>376</ele>
        <time>2022-11-08T12:28:46.000Z</time>
      </trkpt>
      <trkpt lat="42.44239" lon="2.93743">
        <ele>375</ele>
        <time>2022-11-08T12:28:56.000Z</time>
      </trkpt>
      <trkpt lat="42.44239" lon="2.93727">
        <ele>374</ele>
        <time>2022-11-08T12:29:08.000Z</time>
      </trkpt>
      <trkpt lat="42.44233" lon="2.93714">
        <ele>374</ele>
        <time>2022-11-08T12:29:20.000Z</time>
      </trkpt>
      <trkpt lat="42.44232" lon="2.93713">
        <ele>374</ele>
        <time>2022-11-08T12:29:22.000Z</time>
      </trkpt>
      <trkpt lat="42.44228" lon="2.93708">
        <ele>374</ele>
        <time>2022-11-08T12:29:26.000Z</time>
      </trkpt>
      <trkpt lat="42.44211" lon="2.93691">
        <ele>375</ele>
        <time>2022-11-08T12:29:44.000Z</time>
      </trkpt>
      <trkpt lat="42.442" lon="2.93687">
        <ele>375</ele>
        <time>2022-11-08T12:30:11.000Z</time>
      </trkpt>
      <trkpt lat="42.44197" lon="2.93683">
        <ele>375</ele>
        <time>2022-11-08T12:30:15.000Z</time>
      </trkpt>
      <trkpt lat="42.4418" lon="2.93668">
        <ele>376</ele>
        <time>2022-11-08T12:30:34.000Z</time>
      </trkpt>
      <trkpt lat="42.44166" lon="2.93653">
        <ele>376</ele>
        <time>2022-11-08T12:30:48.000Z</time>
      </trkpt>
      <trkpt lat="42.4415" lon="2.93626">
        <ele>374</ele>
        <time>2022-11-08T12:31:11.000Z</time>
      </trkpt>
      <trkpt lat="42.44147" lon="2.93612">
        <ele>372</ele>
        <time>2022-11-08T12:31:35.000Z</time>
      </trkpt>
      <trkpt lat="42.44144" lon="2.93591">
        <ele>370</ele>
        <time>2022-11-08T12:32:08.000Z</time>
      </trkpt>
      <trkpt lat="42.44142" lon="2.93588">
        <ele>370</ele>
        <time>2022-11-08T12:32:11.000Z</time>
      </trkpt>
      <trkpt lat="42.44131" lon="2.93588">
        <ele>371</ele>
        <time>2022-11-08T12:32:34.000Z</time>
      </trkpt>
      <trkpt lat="42.44118" lon="2.93602">
        <ele>372</ele>
        <time>2022-11-08T12:32:58.000Z</time>
      </trkpt>
      <trkpt lat="42.44111" lon="2.93612">
        <ele>374</ele>
        <time>2022-11-08T12:33:17.000Z</time>
      </trkpt>
      <trkpt lat="42.44111" lon="2.93615">
        <ele>374</ele>
        <time>2022-11-08T12:33:41.000Z</time>
      </trkpt>
      <trkpt lat="42.44112" lon="2.93616">
        <ele>374</ele>
        <time>2022-11-08T12:34:08.000Z</time>
      </trkpt>
      <trkpt lat="42.44113" lon="2.93615">
        <ele>374</ele>
        <time>2022-11-08T12:34:39.000Z</time>
      </trkpt>
      <trkpt lat="42.44103" lon="2.9362">
        <ele>375</ele>
        <time>2022-11-08T12:34:59.000Z</time>
      </trkpt>
      <trkpt lat="42.44094" lon="2.93627">
        <ele>375</ele>
        <time>2022-11-08T12:35:21.000Z</time>
      </trkpt>
      <trkpt lat="42.44077" lon="2.93618">
        <ele>375</ele>
        <time>2022-11-08T12:35:42.000Z</time>
      </trkpt>
      <trkpt lat="42.4407" lon="2.93614">
        <ele>375</ele>
        <time>2022-11-08T12:36:11.000Z</time>
      </trkpt>
      <trkpt lat="42.44054" lon="2.93606">
        <ele>376</ele>
        <time>2022-11-08T12:36:31.000Z</time>
      </trkpt>
      <trkpt lat="42.4404" lon="2.93611">
        <ele>378</ele>
        <time>2022-11-08T12:36:52.000Z</time>
      </trkpt>
      <trkpt lat="42.44027" lon="2.93617">
        <ele>378</ele>
        <time>2022-11-08T12:37:05.000Z</time>
      </trkpt>
      <trkpt lat="42.44013" lon="2.93615">
        <ele>380</ele>
        <time>2022-11-08T12:37:20.000Z</time>
      </trkpt>
      <trkpt lat="42.44012" lon="2.93616">
        <ele>380</ele>
        <time>2022-11-08T12:37:21.000Z</time>
      </trkpt>
      <trkpt lat="42.43995" lon="2.93627">
        <ele>382</ele>
        <time>2022-11-08T12:37:39.000Z</time>
      </trkpt>
      <trkpt lat="42.43981" lon="2.93643">
        <ele>383</ele>
        <time>2022-11-08T12:37:59.000Z</time>
      </trkpt>
      <trkpt lat="42.43971" lon="2.93659">
        <ele>383</ele>
        <time>2022-11-08T12:38:13.000Z</time>
      </trkpt>
      <trkpt lat="42.43962" lon="2.93673">
        <ele>383</ele>
        <time>2022-11-08T12:38:27.000Z</time>
      </trkpt>
      <trkpt lat="42.4395" lon="2.93697">
        <ele>385</ele>
        <time>2022-11-08T12:38:46.000Z</time>
      </trkpt>
      <trkpt lat="42.43938" lon="2.93716">
        <ele>386</ele>
        <time>2022-11-08T12:39:04.000Z</time>
      </trkpt>
      <trkpt lat="42.4392" lon="2.93726">
        <ele>388</ele>
        <time>2022-11-08T12:39:24.000Z</time>
      </trkpt>
      <trkpt lat="42.43907" lon="2.93734">
        <ele>391</ele>
        <time>2022-11-08T12:39:44.000Z</time>
      </trkpt>
      <trkpt lat="42.43904" lon="2.93725">
        <ele>392</ele>
        <time>2022-11-08T12:40:02.000Z</time>
      </trkpt>
      <trkpt lat="42.43904" lon="2.93726">
        <ele>392</ele>
        <time>2022-11-08T12:40:31.000Z</time>
      </trkpt>
      <trkpt lat="42.43903" lon="2.93723">
        <ele>393</ele>
        <time>2022-11-08T12:40:41.000Z</time>
      </trkpt>
      <trkpt lat="42.43907" lon="2.93726">
        <ele>393</ele>
        <time>2022-11-08T12:41:08.000Z</time>
      </trkpt>
      <trkpt lat="42.43906" lon="2.93728">
        <ele>393</ele>
        <time>2022-11-08T12:41:41.000Z</time>
      </trkpt>
      <trkpt lat="42.43897" lon="2.93743">
        <ele>395</ele>
        <time>2022-11-08T12:42:01.000Z</time>
      </trkpt>
      <trkpt lat="42.4389" lon="2.93767">
        <ele>398</ele>
        <time>2022-11-08T12:42:21.000Z</time>
      </trkpt>
      <trkpt lat="42.43884" lon="2.93787">
        <ele>400</ele>
        <time>2022-11-08T12:42:41.000Z</time>
      </trkpt>
      <trkpt lat="42.43883" lon="2.9379">
        <ele>401</ele>
        <time>2022-11-08T12:42:44.000Z</time>
      </trkpt>
      <trkpt lat="42.43876" lon="2.93802">
        <ele>402</ele>
        <time>2022-11-08T12:43:04.000Z</time>
      </trkpt>
      <trkpt lat="42.43862" lon="2.93818">
        <ele>403</ele>
        <time>2022-11-08T12:43:26.000Z</time>
      </trkpt>
      <trkpt lat="42.43843" lon="2.93827">
        <ele>406</ele>
        <time>2022-11-08T12:43:48.000Z</time>
      </trkpt>
      <trkpt lat="42.43824" lon="2.93833">
        <ele>406</ele>
        <time>2022-11-08T12:44:08.000Z</time>
      </trkpt>
      <trkpt lat="42.43808" lon="2.93842">
        <ele>406</ele>
        <time>2022-11-08T12:44:29.000Z</time>
      </trkpt>
      <trkpt lat="42.43798" lon="2.93872">
        <ele>406</ele>
        <time>2022-11-08T12:44:50.000Z</time>
      </trkpt>
      <trkpt lat="42.43784" lon="2.93896">
        <ele>407</ele>
        <time>2022-11-08T12:45:10.000Z</time>
      </trkpt>
      <trkpt lat="42.43769" lon="2.93915">
        <ele>408</ele>
        <time>2022-11-08T12:45:29.000Z</time>
      </trkpt>
      <trkpt lat="42.43755" lon="2.93922">
        <ele>410</ele>
        <time>2022-11-08T12:45:45.000Z</time>
      </trkpt>
      <trkpt lat="42.43738" lon="2.93932">
        <ele>410</ele>
        <time>2022-11-08T12:46:04.000Z</time>
      </trkpt>
      <trkpt lat="42.43727" lon="2.93935">
        <ele>409</ele>
        <time>2022-11-08T12:46:14.000Z</time>
      </trkpt>
      <trkpt lat="42.43705" lon="2.93936">
        <ele>406</ele>
        <time>2022-11-08T12:46:35.000Z</time>
      </trkpt>
      <trkpt lat="42.43681" lon="2.9394">
        <ele>403</ele>
        <time>2022-11-08T12:46:55.000Z</time>
      </trkpt>
      <trkpt lat="42.43662" lon="2.93954">
        <ele>404</ele>
        <time>2022-11-08T12:47:14.000Z</time>
      </trkpt>
      <trkpt lat="42.43651" lon="2.93975">
        <ele>405</ele>
        <time>2022-11-08T12:47:32.000Z</time>
      </trkpt>
      <trkpt lat="42.43641" lon="2.94">
        <ele>406</ele>
        <time>2022-11-08T12:47:51.000Z</time>
      </trkpt>
      <trkpt lat="42.43625" lon="2.94028">
        <ele>407</ele>
        <time>2022-11-08T12:48:15.000Z</time>
      </trkpt>
      <trkpt lat="42.4361" lon="2.94047">
        <ele>409</ele>
        <time>2022-11-08T12:48:36.000Z</time>
      </trkpt>
      <trkpt lat="42.43596" lon="2.94066">
        <ele>411</ele>
        <time>2022-11-08T12:48:56.000Z</time>
      </trkpt>
      <trkpt lat="42.43578" lon="2.94081">
        <ele>412</ele>
        <time>2022-11-08T12:49:16.000Z</time>
      </trkpt>
      <trkpt lat="42.4357" lon="2.94103">
        <ele>412</ele>
        <time>2022-11-08T12:49:34.000Z</time>
      </trkpt>
      <trkpt lat="42.43566" lon="2.94117">
        <ele>412</ele>
        <time>2022-11-08T12:49:45.000Z</time>
      </trkpt>
      <trkpt lat="42.43564" lon="2.94121">
        <ele>412</ele>
        <time>2022-11-08T12:49:47.000Z</time>
      </trkpt>
      <trkpt lat="42.43551" lon="2.94132">
        <ele>411</ele>
        <time>2022-11-08T12:50:03.000Z</time>
      </trkpt>
      <trkpt lat="42.43528" lon="2.9414">
        <ele>409</ele>
        <time>2022-11-08T12:50:23.000Z</time>
      </trkpt>
      <trkpt lat="42.43509" lon="2.94134">
        <ele>406</ele>
        <time>2022-11-08T12:50:44.000Z</time>
      </trkpt>
      <trkpt lat="42.43507" lon="2.94132">
        <ele>406</ele>
        <time>2022-11-08T12:50:47.000Z</time>
      </trkpt>
      <trkpt lat="42.43485" lon="2.9412">
        <ele>404</ele>
        <time>2022-11-08T12:51:07.000Z</time>
      </trkpt>
      <trkpt lat="42.43465" lon="2.94116">
        <ele>401</ele>
        <time>2022-11-08T12:51:24.000Z</time>
      </trkpt>
      <trkpt lat="42.43449" lon="2.94115">
        <ele>398</ele>
        <time>2022-11-08T12:51:38.000Z</time>
      </trkpt>
      <trkpt lat="42.4343" lon="2.94117">
        <ele>395</ele>
        <time>2022-11-08T12:51:54.000Z</time>
      </trkpt>
      <trkpt lat="42.43407" lon="2.94124">
        <ele>392</ele>
        <time>2022-11-08T12:52:16.000Z</time>
      </trkpt>
      <trkpt lat="42.43396" lon="2.94121">
        <ele>389</ele>
        <time>2022-11-08T12:52:33.000Z</time>
      </trkpt>
      <trkpt lat="42.43378" lon="2.94125">
        <ele>386</ele>
        <time>2022-11-08T12:52:49.000Z</time>
      </trkpt>
      <trkpt lat="42.43366" lon="2.94134">
        <ele>384</ele>
        <time>2022-11-08T12:53:00.000Z</time>
      </trkpt>
      <trkpt lat="42.43358" lon="2.94133">
        <ele>384</ele>
        <time>2022-11-08T12:53:20.000Z</time>
      </trkpt>
      <trkpt lat="42.43353" lon="2.94129">
        <ele>383</ele>
        <time>2022-11-08T12:53:47.000Z</time>
      </trkpt>
      <trkpt lat="42.43353" lon="2.94127">
        <ele>383</ele>
        <time>2022-11-08T12:54:12.000Z</time>
      </trkpt>
      <trkpt lat="42.43356" lon="2.94123">
        <ele>383</ele>
        <time>2022-11-08T12:54:43.000Z</time>
      </trkpt>
      <trkpt lat="42.43355" lon="2.94122">
        <ele>383</ele>
        <time>2022-11-08T12:55:17.000Z</time>
      </trkpt>
      <trkpt lat="42.43358" lon="2.94126">
        <ele>384</ele>
        <time>2022-11-08T12:55:37.000Z</time>
      </trkpt>
      <trkpt lat="42.43358" lon="2.9413">
        <ele>383</ele>
        <time>2022-11-08T12:55:46.000Z</time>
      </trkpt>
      <trkpt lat="42.43344" lon="2.94134">
        <ele>383</ele>
        <time>2022-11-08T12:56:01.000Z</time>
      </trkpt>
      <trkpt lat="42.43333" lon="2.94138">
        <ele>384</ele>
        <time>2022-11-08T12:56:15.000Z</time>
      </trkpt>
      <trkpt lat="42.4331" lon="2.94143">
        <ele>383</ele>
        <time>2022-11-08T12:56:34.000Z</time>
      </trkpt>
      <trkpt lat="42.43294" lon="2.94146">
        <ele>383</ele>
        <time>2022-11-08T12:56:49.000Z</time>
      </trkpt>
      <trkpt lat="42.43289" lon="2.94148">
        <ele>383</ele>
        <time>2022-11-08T12:56:53.000Z</time>
      </trkpt>
      <trkpt lat="42.43284" lon="2.94151">
        <ele>383</ele>
        <time>2022-11-08T12:56:58.000Z</time>
      </trkpt>
      <trkpt lat="42.43265" lon="2.94153">
        <ele>382</ele>
        <time>2022-11-08T12:57:13.000Z</time>
      </trkpt>
      <trkpt lat="42.43249" lon="2.94153">
        <ele>383</ele>
        <time>2022-11-08T12:57:27.000Z</time>
      </trkpt>
      <trkpt lat="42.43229" lon="2.94154">
        <ele>382</ele>
        <time>2022-11-08T12:57:42.000Z</time>
      </trkpt>
      <trkpt lat="42.43209" lon="2.94155">
        <ele>383</ele>
        <time>2022-11-08T12:57:58.000Z</time>
      </trkpt>
      <trkpt lat="42.43191" lon="2.94161">
        <ele>382</ele>
        <time>2022-11-08T12:58:14.000Z</time>
      </trkpt>
      <trkpt lat="42.43179" lon="2.94164">
        <ele>382</ele>
        <time>2022-11-08T12:58:28.000Z</time>
      </trkpt>
      <trkpt lat="42.43177" lon="2.94164">
        <ele>382</ele>
        <time>2022-11-08T12:58:29.000Z</time>
      </trkpt>
      <trkpt lat="42.43166" lon="2.94167">
        <ele>382</ele>
        <time>2022-11-08T12:58:38.000Z</time>
      </trkpt>
      <trkpt lat="42.4316" lon="2.94176">
        <ele>382</ele>
        <time>2022-11-08T12:58:52.000Z</time>
      </trkpt>
      <trkpt lat="42.43159" lon="2.94172">
        <ele>382</ele>
        <time>2022-11-08T12:59:13.000Z</time>
      </trkpt>
      <trkpt lat="42.43154" lon="2.94169">
        <ele>382</ele>
        <time>2022-11-08T12:59:36.000Z</time>
      </trkpt>
      <trkpt lat="42.43146" lon="2.94164">
        <ele>382</ele>
        <time>2022-11-08T12:59:55.000Z</time>
      </trkpt>
      <trkpt lat="42.43147" lon="2.94164">
        <ele>382</ele>
        <time>2022-11-08T13:00:16.000Z</time>
      </trkpt>
      <trkpt lat="42.43148" lon="2.94166">
        <ele>382</ele>
        <time>2022-11-08T13:00:58.000Z</time>
      </trkpt>
      <trkpt lat="42.43148" lon="2.94166">
        <ele>382</ele>
        <time>2022-11-08T13:01:28.000Z</time>
      </trkpt>
      <trkpt lat="42.43148" lon="2.94165">
        <ele>383</ele>
        <time>2022-11-08T13:01:58.000Z</time>
      </trkpt>
      <trkpt lat="42.43147" lon="2.94166">
        <ele>383</ele>
        <time>2022-11-08T13:02:29.000Z</time>
      </trkpt>
      <trkpt lat="42.43147" lon="2.94164">
        <ele>383</ele>
        <time>2022-11-08T13:03:02.000Z</time>
      </trkpt>
      <trkpt lat="42.43146" lon="2.94162">
        <ele>383</ele>
        <time>2022-11-08T13:03:18.000Z</time>
      </trkpt>
      <trkpt lat="42.4314" lon="2.94154">
        <ele>382</ele>
        <time>2022-11-08T13:03:34.000Z</time>
      </trkpt>
      <trkpt lat="42.43134" lon="2.94146">
        <ele>380</ele>
        <time>2022-11-08T13:03:47.000Z</time>
      </trkpt>
      <trkpt lat="42.43129" lon="2.94134">
        <ele>377</ele>
        <time>2022-11-08T13:04:03.000Z</time>
      </trkpt>
      <trkpt lat="42.43125" lon="2.94124">
        <ele>376</ele>
        <time>2022-11-08T13:04:18.000Z</time>
      </trkpt>
      <trkpt lat="42.43118" lon="2.94115">
        <ele>373</ele>
        <time>2022-11-08T13:04:36.000Z</time>
      </trkpt>
      <trkpt lat="42.43116" lon="2.94106">
        <ele>371</ele>
        <time>2022-11-08T13:04:59.000Z</time>
      </trkpt>
      <trkpt lat="42.43114" lon="2.94101">
        <ele>370</ele>
        <time>2022-11-08T13:05:13.000Z</time>
      </trkpt>
      <trkpt lat="42.43111" lon="2.94099">
        <ele>368</ele>
        <time>2022-11-08T13:05:27.000Z</time>
      </trkpt>
      <trkpt lat="42.43106" lon="2.94093">
        <ele>366</ele>
        <time>2022-11-08T13:05:44.000Z</time>
      </trkpt>
      <trkpt lat="42.43101" lon="2.94085">
        <ele>363</ele>
        <time>2022-11-08T13:06:02.000Z</time>
      </trkpt>
      <trkpt lat="42.43093" lon="2.94085">
        <ele>361</ele>
        <time>2022-11-08T13:06:22.000Z</time>
      </trkpt>
      <trkpt lat="42.43082" lon="2.94076">
        <ele>359</ele>
        <time>2022-11-08T13:06:38.000Z</time>
      </trkpt>
      <trkpt lat="42.43078" lon="2.94071">
        <ele>356</ele>
        <time>2022-11-08T13:06:57.000Z</time>
      </trkpt>
      <trkpt lat="42.43076" lon="2.94069">
        <ele>354</ele>
        <time>2022-11-08T13:07:17.000Z</time>
      </trkpt>
      <trkpt lat="42.43075" lon="2.94067">
        <ele>354</ele>
        <time>2022-11-08T13:07:47.000Z</time>
      </trkpt>
      <trkpt lat="42.43075" lon="2.94062">
        <ele>352</ele>
        <time>2022-11-08T13:08:05.000Z</time>
      </trkpt>
      <trkpt lat="42.43073" lon="2.94059">
        <ele>351</ele>
        <time>2022-11-08T13:08:25.000Z</time>
      </trkpt>
      <trkpt lat="42.43071" lon="2.94054">
        <ele>350</ele>
        <time>2022-11-08T13:08:45.000Z</time>
      </trkpt>
      <trkpt lat="42.43066" lon="2.94049">
        <ele>349</ele>
        <time>2022-11-08T13:09:05.000Z</time>
      </trkpt>
      <trkpt lat="42.43061" lon="2.94043">
        <ele>347</ele>
        <time>2022-11-08T13:09:29.000Z</time>
      </trkpt>
      <trkpt lat="42.43062" lon="2.94039">
        <ele>345</ele>
        <time>2022-11-08T13:09:51.000Z</time>
      </trkpt>
      <trkpt lat="42.43053" lon="2.94039">
        <ele>344</ele>
        <time>2022-11-08T13:10:15.000Z</time>
      </trkpt>
      <trkpt lat="42.43044" lon="2.94038">
        <ele>342</ele>
        <time>2022-11-08T13:10:31.000Z</time>
      </trkpt>
      <trkpt lat="42.43035" lon="2.94037">
        <ele>340</ele>
        <time>2022-11-08T13:10:49.000Z</time>
      </trkpt>
      <trkpt lat="42.43024" lon="2.94035">
        <ele>339</ele>
        <time>2022-11-08T13:11:04.000Z</time>
      </trkpt>
      <trkpt lat="42.43018" lon="2.94038">
        <ele>338</ele>
        <time>2022-11-08T13:11:11.000Z</time>
      </trkpt>
      <trkpt lat="42.43007" lon="2.94048">
        <ele>337</ele>
        <time>2022-11-08T13:11:28.000Z</time>
      </trkpt>
      <trkpt lat="42.43001" lon="2.94057">
        <ele>336</ele>
        <time>2022-11-08T13:11:43.000Z</time>
      </trkpt>
      <trkpt lat="42.42992" lon="2.9407">
        <ele>334</ele>
        <time>2022-11-08T13:12:05.000Z</time>
      </trkpt>
      <trkpt lat="42.42977" lon="2.94059">
        <ele>331</ele>
        <time>2022-11-08T13:12:26.000Z</time>
      </trkpt>
      <trkpt lat="42.42973" lon="2.94039">
        <ele>329</ele>
        <time>2022-11-08T13:12:50.000Z</time>
      </trkpt>
      <trkpt lat="42.42972" lon="2.94029">
        <ele>328</ele>
        <time>2022-11-08T13:13:08.000Z</time>
      </trkpt>
      <trkpt lat="42.4297" lon="2.94017">
        <ele>327</ele>
        <time>2022-11-08T13:13:30.000Z</time>
      </trkpt>
      <trkpt lat="42.42973" lon="2.94005">
        <ele>325</ele>
        <time>2022-11-08T13:13:46.000Z</time>
      </trkpt>
      <trkpt lat="42.42975" lon="2.93999">
        <ele>324</ele>
        <time>2022-11-08T13:14:08.000Z</time>
      </trkpt>
      <trkpt lat="42.42974" lon="2.93991">
        <ele>323</ele>
        <time>2022-11-08T13:14:29.000Z</time>
      </trkpt>
      <trkpt lat="42.42975" lon="2.93989">
        <ele>322</ele>
        <time>2022-11-08T13:14:51.000Z</time>
      </trkpt>
      <trkpt lat="42.42976" lon="2.93991">
        <ele>322</ele>
        <time>2022-11-08T13:15:20.000Z</time>
      </trkpt>
      <trkpt lat="42.42975" lon="2.93989">
        <ele>322</ele>
        <time>2022-11-08T13:15:53.000Z</time>
      </trkpt>
      <trkpt lat="42.42971" lon="2.93979">
        <ele>321</ele>
        <time>2022-11-08T13:16:24.000Z</time>
      </trkpt>
      <trkpt lat="42.42961" lon="2.93973">
        <ele>319</ele>
        <time>2022-11-08T13:16:37.000Z</time>
      </trkpt>
      <trkpt lat="42.4295" lon="2.93969">
        <ele>318</ele>
        <time>2022-11-08T13:16:49.000Z</time>
      </trkpt>
      <trkpt lat="42.42941" lon="2.93957">
        <ele>318</ele>
        <time>2022-11-08T13:17:09.000Z</time>
      </trkpt>
      <trkpt lat="42.42931" lon="2.93932">
        <ele>317</ele>
        <time>2022-11-08T13:17:32.000Z</time>
      </trkpt>
      <trkpt lat="42.42927" lon="2.93923">
        <ele>315</ele>
        <time>2022-11-08T13:17:40.000Z</time>
      </trkpt>
      <trkpt lat="42.42919" lon="2.939">
        <ele>312</ele>
        <time>2022-11-08T13:17:58.000Z</time>
      </trkpt>
      <trkpt lat="42.42911" lon="2.93885">
        <ele>310</ele>
        <time>2022-11-08T13:18:15.000Z</time>
      </trkpt>
      <trkpt lat="42.42902" lon="2.93876">
        <ele>307</ele>
        <time>2022-11-08T13:18:31.000Z</time>
      </trkpt>
      <trkpt lat="42.42891" lon="2.93859">
        <ele>304</ele>
        <time>2022-11-08T13:18:53.000Z</time>
      </trkpt>
      <trkpt lat="42.42882" lon="2.93835">
        <ele>302</ele>
        <time>2022-11-08T13:19:13.000Z</time>
      </trkpt>
      <trkpt lat="42.42877" lon="2.93815">
        <ele>299</ele>
        <time>2022-11-08T13:19:30.000Z</time>
      </trkpt>
      <trkpt lat="42.42868" lon="2.93801">
        <ele>296</ele>
        <time>2022-11-08T13:19:48.000Z</time>
      </trkpt>
      <trkpt lat="42.42869" lon="2.93796">
        <ele>295</ele>
        <time>2022-11-08T13:20:14.000Z</time>
      </trkpt>
      <trkpt lat="42.42865" lon="2.93794">
        <ele>295</ele>
        <time>2022-11-08T13:20:31.000Z</time>
      </trkpt>
      <trkpt lat="42.42867" lon="2.93787">
        <ele>295</ele>
        <time>2022-11-08T13:20:48.000Z</time>
      </trkpt>
      <trkpt lat="42.42866" lon="2.93784">
        <ele>295</ele>
        <time>2022-11-08T13:20:50.000Z</time>
      </trkpt>
      <trkpt lat="42.42863" lon="2.93763">
        <ele>295</ele>
        <time>2022-11-08T13:21:05.000Z</time>
      </trkpt>
      <trkpt lat="42.42861" lon="2.9374">
        <ele>293</ele>
        <time>2022-11-08T13:21:23.000Z</time>
      </trkpt>
      <trkpt lat="42.42858" lon="2.93715">
        <ele>291</ele>
        <time>2022-11-08T13:21:40.000Z</time>
      </trkpt>
      <trkpt lat="42.42861" lon="2.93695">
        <ele>290</ele>
        <time>2022-11-08T13:21:54.000Z</time>
      </trkpt>
      <trkpt lat="42.42858" lon="2.93672">
        <ele>287</ele>
        <time>2022-11-08T13:22:10.000Z</time>
      </trkpt>
      <trkpt lat="42.42855" lon="2.93654">
        <ele>285</ele>
        <time>2022-11-08T13:22:25.000Z</time>
      </trkpt>
      <trkpt lat="42.42855" lon="2.93653">
        <ele>285</ele>
        <time>2022-11-08T13:22:26.000Z</time>
      </trkpt>
      <trkpt lat="42.42853" lon="2.93632">
        <ele>282</ele>
        <time>2022-11-08T13:22:41.000Z</time>
      </trkpt>
      <trkpt lat="42.42853" lon="2.93618">
        <ele>279</ele>
        <time>2022-11-08T13:22:51.000Z</time>
      </trkpt>
      <trkpt lat="42.42851" lon="2.93604">
        <ele>276</ele>
        <time>2022-11-08T13:23:07.000Z</time>
      </trkpt>
      <trkpt lat="42.42848" lon="2.93592">
        <ele>274</ele>
        <time>2022-11-08T13:23:21.000Z</time>
      </trkpt>
      <trkpt lat="42.42849" lon="2.93589">
        <ele>273</ele>
        <time>2022-11-08T13:23:39.000Z</time>
      </trkpt>
      <trkpt lat="42.42848" lon="2.93589">
        <ele>273</ele>
        <time>2022-11-08T13:23:54.000Z</time>
      </trkpt>
      <trkpt lat="42.42845" lon="2.93582">
        <ele>272</ele>
        <time>2022-11-08T13:24:06.000Z</time>
      </trkpt>
      <trkpt lat="42.42839" lon="2.93575">
        <ele>271</ele>
        <time>2022-11-08T13:24:15.000Z</time>
      </trkpt>
      <trkpt lat="42.42833" lon="2.93559">
        <ele>268</ele>
        <time>2022-11-08T13:24:31.000Z</time>
      </trkpt>
      <trkpt lat="42.42824" lon="2.9355">
        <ele>266</ele>
        <time>2022-11-08T13:24:44.000Z</time>
      </trkpt>
      <trkpt lat="42.42813" lon="2.93539">
        <ele>264</ele>
        <time>2022-11-08T13:25:02.000Z</time>
      </trkpt>
      <trkpt lat="42.42804" lon="2.93527">
        <ele>261</ele>
        <time>2022-11-08T13:25:18.000Z</time>
      </trkpt>
      <trkpt lat="42.42802" lon="2.93517">
        <ele>258</ele>
        <time>2022-11-08T13:25:34.000Z</time>
      </trkpt>
      <trkpt lat="42.42812" lon="2.93522">
        <ele>255</ele>
        <time>2022-11-08T13:25:53.000Z</time>
      </trkpt>
      <trkpt lat="42.42811" lon="2.93519">
        <ele>254</ele>
        <time>2022-11-08T13:26:11.000Z</time>
      </trkpt>
      <trkpt lat="42.42809" lon="2.93517">
        <ele>254</ele>
        <time>2022-11-08T13:26:32.000Z</time>
      </trkpt>
      <trkpt lat="42.4281" lon="2.93514">
        <ele>254</ele>
        <time>2022-11-08T13:27:03.000Z</time>
      </trkpt>
      <trkpt lat="42.42811" lon="2.93513">
        <ele>254</ele>
        <time>2022-11-08T13:27:25.000Z</time>
      </trkpt>
      <trkpt lat="42.42812" lon="2.93509">
        <ele>253</ele>
        <time>2022-11-08T13:27:43.000Z</time>
      </trkpt>
      <trkpt lat="42.42807" lon="2.935">
        <ele>251</ele>
        <time>2022-11-08T13:27:58.000Z</time>
      </trkpt>
      <trkpt lat="42.42801" lon="2.93492">
        <ele>249</ele>
        <time>2022-11-08T13:28:13.000Z</time>
      </trkpt>
      <trkpt lat="42.42797" lon="2.93478">
        <ele>247</ele>
        <time>2022-11-08T13:28:31.000Z</time>
      </trkpt>
      <trkpt lat="42.4279" lon="2.93469">
        <ele>245</ele>
        <time>2022-11-08T13:28:48.000Z</time>
      </trkpt>
      <trkpt lat="42.42791" lon="2.93471">
        <ele>244</ele>
        <time>2022-11-08T13:29:02.000Z</time>
      </trkpt>
      <trkpt lat="42.4279" lon="2.9347">
        <ele>245</ele>
        <time>2022-11-08T13:29:41.000Z</time>
      </trkpt>
      <trkpt lat="42.42791" lon="2.93472">
        <ele>245</ele>
        <time>2022-11-08T13:29:54.000Z</time>
      </trkpt>
      <trkpt lat="42.42785" lon="2.93462">
        <ele>244</ele>
        <time>2022-11-08T13:30:13.000Z</time>
      </trkpt>
      <trkpt lat="42.42783" lon="2.9346">
        <ele>243</ele>
        <time>2022-11-08T13:30:15.000Z</time>
      </trkpt>
      <trkpt lat="42.42771" lon="2.93447">
        <ele>241</ele>
        <time>2022-11-08T13:30:30.000Z</time>
      </trkpt>
      <trkpt lat="42.42761" lon="2.93433">
        <ele>239</ele>
        <time>2022-11-08T13:30:44.000Z</time>
      </trkpt>
      <trkpt lat="42.4275" lon="2.93428">
        <ele>235</ele>
        <time>2022-11-08T13:30:56.000Z</time>
      </trkpt>
      <trkpt lat="42.42741" lon="2.93421">
        <ele>232</ele>
        <time>2022-11-08T13:31:07.000Z</time>
      </trkpt>
      <trkpt lat="42.42736" lon="2.93415">
        <ele>229</ele>
        <time>2022-11-08T13:31:21.000Z</time>
      </trkpt>
      <trkpt lat="42.42731" lon="2.93405">
        <ele>226</ele>
        <time>2022-11-08T13:31:42.000Z</time>
      </trkpt>
      <trkpt lat="42.42721" lon="2.93402">
        <ele>225</ele>
        <time>2022-11-08T13:31:58.000Z</time>
      </trkpt>
      <trkpt lat="42.42706" lon="2.93394">
        <ele>223</ele>
        <time>2022-11-08T13:32:16.000Z</time>
      </trkpt>
      <trkpt lat="42.42698" lon="2.93382">
        <ele>222</ele>
        <time>2022-11-08T13:32:27.000Z</time>
      </trkpt>
      <trkpt lat="42.42681" lon="2.9336">
        <ele>219</ele>
        <time>2022-11-08T13:32:47.000Z</time>
      </trkpt>
      <trkpt lat="42.42673" lon="2.9335">
        <ele>218</ele>
        <time>2022-11-08T13:33:00.000Z</time>
      </trkpt>
      <trkpt lat="42.42665" lon="2.9332">
        <ele>216</ele>
        <time>2022-11-08T13:33:22.000Z</time>
      </trkpt>
      <trkpt lat="42.42665" lon="2.93318">
        <ele>216</ele>
        <time>2022-11-08T13:33:23.000Z</time>
      </trkpt>
      <trkpt lat="42.42657" lon="2.93299">
        <ele>215</ele>
        <time>2022-11-08T13:33:37.000Z</time>
      </trkpt>
      <trkpt lat="42.4265" lon="2.93286">
        <ele>215</ele>
        <time>2022-11-08T13:33:48.000Z</time>
      </trkpt>
      <trkpt lat="42.4264" lon="2.9327">
        <ele>216</ele>
        <time>2022-11-08T13:34:01.000Z</time>
      </trkpt>
      <trkpt lat="42.42625" lon="2.93238">
        <ele>218</ele>
        <time>2022-11-08T13:34:26.000Z</time>
      </trkpt>
      <trkpt lat="42.42616" lon="2.93222">
        <ele>219</ele>
        <time>2022-11-08T13:34:46.000Z</time>
      </trkpt>
      <trkpt lat="42.42609" lon="2.93204">
        <ele>221</ele>
        <time>2022-11-08T13:35:08.000Z</time>
      </trkpt>
      <trkpt lat="42.42606" lon="2.932">
        <ele>221</ele>
        <time>2022-11-08T13:35:36.000Z</time>
      </trkpt>
      <trkpt lat="42.426" lon="2.93184">
        <ele>220</ele>
        <time>2022-11-08T13:35:57.000Z</time>
      </trkpt>
      <trkpt lat="42.42596" lon="2.9317">
        <ele>219</ele>
        <time>2022-11-08T13:36:13.000Z</time>
      </trkpt>
      <trkpt lat="42.42593" lon="2.9316">
        <ele>218</ele>
        <time>2022-11-08T13:36:27.000Z</time>
      </trkpt>
      <trkpt lat="42.42589" lon="2.93154">
        <ele>218</ele>
        <time>2022-11-08T13:36:54.000Z</time>
      </trkpt>
      <trkpt lat="42.42591" lon="2.93153">
        <ele>217</ele>
        <time>2022-11-08T13:37:23.000Z</time>
      </trkpt>
      <trkpt lat="42.42589" lon="2.9315">
        <ele>217</ele>
        <time>2022-11-08T13:37:42.000Z</time>
      </trkpt>
      <trkpt lat="42.42591" lon="2.93148">
        <ele>217</ele>
        <time>2022-11-08T13:38:07.000Z</time>
      </trkpt>
      <trkpt lat="42.42579" lon="2.9312">
        <ele>216</ele>
        <time>2022-11-08T13:38:30.000Z</time>
      </trkpt>
      <trkpt lat="42.42573" lon="2.93103">
        <ele>214</ele>
        <time>2022-11-08T13:38:45.000Z</time>
      </trkpt>
      <trkpt lat="42.42568" lon="2.93081">
        <ele>213</ele>
        <time>2022-11-08T13:39:03.000Z</time>
      </trkpt>
      <trkpt lat="42.42559" lon="2.93047">
        <ele>212</ele>
        <time>2022-11-08T13:39:26.000Z</time>
      </trkpt>
      <trkpt lat="42.42555" lon="2.93014">
        <ele>211</ele>
        <time>2022-11-08T13:39:48.000Z</time>
      </trkpt>
      <trkpt lat="42.42551" lon="2.92988">
        <ele>211</ele>
        <time>2022-11-08T13:40:05.000Z</time>
      </trkpt>
      <trkpt lat="42.42543" lon="2.92946">
        <ele>211</ele>
        <time>2022-11-08T13:40:30.000Z</time>
      </trkpt>
      <trkpt lat="42.42531" lon="2.92918">
        <ele>211</ele>
        <time>2022-11-08T13:40:53.000Z</time>
      </trkpt>
      <trkpt lat="42.42522" lon="2.92893">
        <ele>211</ele>
        <time>2022-11-08T13:41:14.000Z</time>
      </trkpt>
      <trkpt lat="42.42522" lon="2.92891">
        <ele>211</ele>
        <time>2022-11-08T13:41:15.000Z</time>
      </trkpt>
      <trkpt lat="42.42523" lon="2.92883">
        <ele>211</ele>
        <time>2022-11-08T13:41:20.000Z</time>
      </trkpt>
      <trkpt lat="42.42529" lon="2.92862">
        <ele>211</ele>
        <time>2022-11-08T13:41:34.000Z</time>
      </trkpt>
      <trkpt lat="42.42535" lon="2.92835">
        <ele>212</ele>
        <time>2022-11-08T13:41:51.000Z</time>
      </trkpt>
      <trkpt lat="42.42533" lon="2.92827">
        <ele>212</ele>
        <time>2022-11-08T13:41:57.000Z</time>
      </trkpt>
      <trkpt lat="42.42533" lon="2.92818">
        <ele>212</ele>
        <time>2022-11-08T13:42:02.000Z</time>
      </trkpt>
      <trkpt lat="42.42535" lon="2.92807">
        <ele>213</ele>
        <time>2022-11-08T13:42:09.000Z</time>
      </trkpt>
      <trkpt lat="42.42535" lon="2.92804">
        <ele>213</ele>
        <time>2022-11-08T13:42:11.000Z</time>
      </trkpt>
      <trkpt lat="42.42536" lon="2.92776">
        <ele>214</ele>
        <time>2022-11-08T13:42:30.000Z</time>
      </trkpt>
      <trkpt lat="42.42534" lon="2.92752">
        <ele>214</ele>
        <time>2022-11-08T13:42:45.000Z</time>
      </trkpt>
      <trkpt lat="42.42531" lon="2.92733">
        <ele>213</ele>
        <time>2022-11-08T13:43:00.000Z</time>
      </trkpt>
      <trkpt lat="42.42528" lon="2.92717">
        <ele>213</ele>
        <time>2022-11-08T13:43:11.000Z</time>
      </trkpt>
      <trkpt lat="42.42521" lon="2.927">
        <ele>213</ele>
        <time>2022-11-08T13:43:27.000Z</time>
      </trkpt>
      <trkpt lat="42.42501" lon="2.9268">
        <ele>212</ele>
        <time>2022-11-08T13:43:51.000Z</time>
      </trkpt>
      <trkpt lat="42.42488" lon="2.92675">
        <ele>211</ele>
        <time>2022-11-08T13:44:05.000Z</time>
      </trkpt>
      <trkpt lat="42.4248" lon="2.92665">
        <ele>211</ele>
        <time>2022-11-08T13:44:16.000Z</time>
      </trkpt>
      <trkpt lat="42.42469" lon="2.92638">
        <ele>210</ele>
        <time>2022-11-08T13:44:34.000Z</time>
      </trkpt>
      <trkpt lat="42.42466" lon="2.92631">
        <ele>209</ele>
        <time>2022-11-08T13:44:49.000Z</time>
      </trkpt>
      <trkpt lat="42.4246" lon="2.9262">
        <ele>209</ele>
        <time>2022-11-08T13:45:00.000Z</time>
      </trkpt>
      <trkpt lat="42.4245" lon="2.92597">
        <ele>208</ele>
        <time>2022-11-08T13:45:20.000Z</time>
      </trkpt>
      <trkpt lat="42.4244" lon="2.92599">
        <ele>206</ele>
        <time>2022-11-08T13:45:34.000Z</time>
      </trkpt>
      <trkpt lat="42.42436" lon="2.926">
        <ele>206</ele>
        <time>2022-11-08T13:45:38.000Z</time>
      </trkpt>
      <trkpt lat="42.42422" lon="2.92608">
        <ele>206</ele>
        <time>2022-11-08T13:45:49.000Z</time>
      </trkpt>
      <trkpt lat="42.42421" lon="2.92609">
        <ele>206</ele>
        <time>2022-11-08T13:45:51.000Z</time>
      </trkpt>
      <trkpt lat="42.42414" lon="2.92618">
        <ele>205</ele>
        <time>2022-11-08T13:46:00.000Z</time>
      </trkpt>
      <trkpt lat="42.424" lon="2.92636">
        <ele>205</ele>
        <time>2022-11-08T13:46:16.000Z</time>
      </trkpt>
      <trkpt lat="42.42392" lon="2.92644">
        <ele>204</ele>
        <time>2022-11-08T13:46:30.000Z</time>
      </trkpt>
      <trkpt lat="42.42391" lon="2.92646">
        <ele>204</ele>
        <time>2022-11-08T13:46:32.000Z</time>
      </trkpt>
      <trkpt lat="42.42388" lon="2.92647">
        <ele>204</ele>
        <time>2022-11-08T13:46:34.000Z</time>
      </trkpt>
      <trkpt lat="42.42384" lon="2.92646">
        <ele>204</ele>
        <time>2022-11-08T13:46:47.000Z</time>
      </trkpt>
      <trkpt lat="42.42375" lon="2.92644">
        <ele>203</ele>
        <time>2022-11-08T13:47:04.000Z</time>
      </trkpt>
      <trkpt lat="42.42353" lon="2.92652">
        <ele>203</ele>
        <time>2022-11-08T13:47:23.000Z</time>
      </trkpt>
      <trkpt lat="42.42329" lon="2.92664">
        <ele>202</ele>
        <time>2022-11-08T13:47:42.000Z</time>
      </trkpt>
      <trkpt lat="42.42315" lon="2.92668">
        <ele>202</ele>
        <time>2022-11-08T13:47:54.000Z</time>
      </trkpt>
      <trkpt lat="42.423" lon="2.9267">
        <ele>201</ele>
        <time>2022-11-08T13:48:08.000Z</time>
      </trkpt>
      <trkpt lat="42.42289" lon="2.92671">
        <ele>201</ele>
        <time>2022-11-08T13:48:17.000Z</time>
      </trkpt>
      <trkpt lat="42.42282" lon="2.92675">
        <ele>201</ele>
        <time>2022-11-08T13:48:22.000Z</time>
      </trkpt>
      <trkpt lat="42.42269" lon="2.92678">
        <ele>200</ele>
        <time>2022-11-08T13:48:34.000Z</time>
      </trkpt>
      <trkpt lat="42.42263" lon="2.92678">
        <ele>200</ele>
        <time>2022-11-08T13:48:40.000Z</time>
      </trkpt>
      <trkpt lat="42.42259" lon="2.92679">
        <ele>200</ele>
        <time>2022-11-08T13:48:43.000Z</time>
      </trkpt>
      <trkpt lat="42.4225" lon="2.92676">
        <ele>200</ele>
        <time>2022-11-08T13:48:52.000Z</time>
      </trkpt>
      <trkpt lat="42.4224" lon="2.92671">
        <ele>200</ele>
        <time>2022-11-08T13:49:08.000Z</time>
      </trkpt>
      <trkpt lat="42.42236" lon="2.92672">
        <ele>199</ele>
        <time>2022-11-08T13:49:28.000Z</time>
      </trkpt>
      <trkpt lat="42.42226" lon="2.92667">
        <ele>199</ele>
        <time>2022-11-08T13:49:49.000Z</time>
      </trkpt>
      <trkpt lat="42.42218" lon="2.92664">
        <ele>198</ele>
        <time>2022-11-08T13:50:03.000Z</time>
      </trkpt>
      <trkpt lat="42.42203" lon="2.92661">
        <ele>198</ele>
        <time>2022-11-08T13:50:18.000Z</time>
      </trkpt>
      <trkpt lat="42.42187" lon="2.92658">
        <ele>197</ele>
        <time>2022-11-08T13:50:35.000Z</time>
      </trkpt>
      <trkpt lat="42.42186" lon="2.92658">
        <ele>185</ele>
        <time>2022-11-08T13:50:36.000Z</time>
      </trkpt>
    </trkseg>
  </trk>
</gpx>